YYYY MM/DD hh:mm	Temp	Humid	W_dir	W_spd	Barom	T_int	Light	Power	Temp2	P2	Snow	T_mid	T_base	Precip
Year Date  Time 	(F)	(%)	(Deg)	(MPH)	("Hg)	(F)	/1000	(V)	(F)	-	(")	(F)	(F)	(")
2021 05/09 00:00	31.7	100.0	297.9	6.0	30.21	51.7	0.0	13.01	-137.7	0	48.9	33.5	38.9	0	196	0	0	0	45.7	40.0	0.0
2021 05/09 00:15	31.4	100.1	297.9	6.6	30.20	51.6	0.0	12.99	-137.7	0	48.8	33.5	38.7	0	196	0	0	0	45.5	40.0	0.0
2021 05/09 00:30	31.4	100.1	197.1	3.6	30.20	51.5	0.0	12.97	-137.7	0	48.8	33.5	38.5	0	196	0	0	0	45.2	39.9	0.0
2021 05/09 00:45	31.4	100.1	203.9	5.8	30.19	51.4	0.0	12.99	-137.6	0	48.8	33.5	38.2	0	196	0	0	0	45.1	39.9	0.0
2021 05/09 01:00	31.3	100.0	278.0	7.4	30.19	51.3	0.0	13.01	-137.7	0	48.8	33.5	38.4	0	196	0	0	0	44.9	39.8	0.0
2021 05/09 01:15	31.2	100.1	258.9	6.1	30.18	51.1	0.0	13.00	-137.7	0	48.8	32.6	38.5	0	196	0	0	0	44.7	39.8	0.0
2021 05/09 01:30	31.2	100.0	283.4	6.7	30.18	51.0	0.0	13.00	-137.7	0	48.8	32.6	38.5	0	196	0	0	0	44.5	39.7	0.0
2021 05/09 01:45	31.1	100.0	286.8	6.8	30.18	50.9	0.0	13.01	-137.7	0	48.8	32.6	38.4	0	196	0	0	0	44.4	39.7	0.0
2021 05/09 02:00	31.0	100.1	295.6	7.5	30.17	50.8	0.0	13.00	-137.7	0	48.9	32.6	37.9	0	196	0	0	0	44.3	39.6	0.0
2021 05/09 02:15	31.1	100.0	263.6	7.9	30.17	50.7	0.0	12.99	-137.7	0	48.8	32.6	37.8	0	196	0	0	0	44.1	39.6	0.0
2021 05/09 02:30	31.0	100.0	284.1	8.7	30.17	50.6	0.0	13.00	-137.7	0	48.8	32.6	38.2	0	196	0	0	0	43.9	39.5	0.0
2021 05/09 02:45	31.0	100.0	309.1	4.5	30.17	50.5	0.0	13.01	-137.7	0	48.8	32.6	38.2	0	196	0	0	0	43.8	39.5	0.0
2021 05/09 03:00	31.1	100.1	285.0	8.9	30.17	50.4	0.0	13.01	-137.7	0	47.8	32.6	37.9	0	196	0	0	0	43.7	39.5	0.0
2021 05/09 03:15	31.2	100.0	270.8	8.5	30.16	50.3	0.0	12.98	-137.7	0	47.7	32.6	37.9	0	196	0	0	0	43.4	39.4	0.0
2021 05/09 03:30	31.1	100.0	263.5	6.7	30.16	50.2	0.0	13.01	-137.7	0	48.8	32.6	38.0	0	196	0	0	0	43.3	39.4	0.0
2021 05/09 03:45	31.2	100.0	282.2	7.1	30.16	50.1	0.0	13.01	-137.7	0	47.9	32.6	38.1	0	196	0	0	0	43.2	39.3	0.0
2021 05/09 04:00	31.1	100.0	278.9	7.7	30.15	50.0	0.0	12.99	-137.7	0	47.8	32.6	38.0	0	196	0	0	0	43.1	39.3	0.0
2021 05/09 04:15	31.1	100.0	292.0	7.3	30.15	49.9	0.0	12.98	-137.7	0	48.1	32.6	37.7	0	196	0	0	0	43.1	39.3	0.0
2021 05/09 04:30	31.1	100.0	265.8	5.8	30.14	49.8	0.0	12.98	-137.7	0	48.0	32.6	37.7	0	196	0	0	0	42.9	39.2	0.0
2021 05/09 04:45	31.1	100.0	286.2	4.9	30.14	49.7	0.0	13.00	-137.7	0	48.1	32.6	37.3	0	196	0	0	0	42.9	39.2	0.0
2021 05/09 05:00	31.0	100.0	252.0	4.8	30.14	49.7	0.0	12.98	-137.7	0	48.1	32.6	37.1	0	196	0	0	0	42.9	39.0	0.0
2021 05/09 05:15	31.0	100.1	293.4	5.5	30.13	49.5	0.0	13.00	-137.7	0	48.4	32.6	37.0	0	196	0	0	0	42.7	39.0	0.0
2021 05/09 05:30	31.1	100.0	285.0	6.0	30.13	49.5	1.0	13.01	-137.7	0	48.2	32.6	37.5	0	196	0	0	0	42.5	39.0	0.0
2021 05/09 05:45	31.1	100.0	303.2	6.2	30.13	49.3	8.1	13.01	-137.7	0	48.4	32.6	37.5	0	196	0	0	0	42.4	39.0	0.0
2021 05/09 06:00	31.2	100.1	286.3	3.6	30.13	49.3	31.9	13.00	-137.7	0	48.5	32.6	37.5	0	196	0	0	0	42.4	38.9	0.0
2021 05/09 06:15	31.2	100.0	238.0	3.9	30.12	49.1	67.2	12.99	-137.7	0	48.5	32.6	36.8	0	196	0	0	0	42.3	38.9	0.0
2021 05/09 06:30	32.3	100.6	218.4	7.2	30.12	49.1	151.3	13.01	-137.7	0	48.6	32.6	37.0	0	197	0	0	0	42.2	38.9	0.0
2021 05/09 06:45	31.2	100.1	239.0	6.7	30.12	48.9	212.4	12.98	-137.7	0	48.8	32.6	37.6	0	197	0	0	0	42.2	38.8	0.0
2021 05/09 07:00	31.0	100.0	235.6	6.9	30.12	48.9	367.1	12.99	-137.7	0	48.8	32.6	38.4	0	198	0	0	0	42.1	38.8	0.0
2021 05/09 07:15	31.0	100.0	233.1	6.5	30.12	48.8	375.6	13.00	-137.7	0	48.6	33.5	38.8	0	198	0	0	0	42.1	38.8	0.0
2021 05/09 07:30	30.9	100.0	232.0	5.9	30.13	48.7	339.0	13.01	-137.7	0	48.6	33.5	39.1	0	198	0	0	0	42.2	38.8	0.0
2021 05/09 07:45	30.9	100.1	227.1	6.0	30.13	48.6	362.1	13.00	-137.7	0	48.7	33.5	39.1	0	198	0	0	0	42.2	38.9	0.0
2021 05/09 08:00	31.2	100.0	230.8	5.9	30.13	48.5	385.1	12.98	-137.7	0	48.8	33.5	39.3	0	199	0	0	0	42.3	38.9	0.0
2021 05/09 08:15	31.5	100.0	235.2	9.4	30.13	48.5	415.7	13.02	-137.7	0	48.6	33.5	39.0	0	199	0	0	0	42.4	39.0	0.0
2021 05/09 08:30	31.6	100.0	238.3	8.5	30.13	48.5	456.7	13.00	-137.7	0	48.6	34.4	40.3	0	199	0	0	0	42.5	39.2	0.0
2021 05/09 08:45	31.7	100.0	257.1	4.7	30.13	48.3	400.1	13.01	-137.7	0	48.3	34.4	39.8	0	199	0	0	0	42.5	39.3	0.0
2021 05/09 09:00	31.8	100.0	248.5	3.6	30.13	48.3	398.0	12.99	-137.7	0	48.1	34.4	39.7	0	199	0	0	0	42.6	39.3	0.0
2021 05/09 09:15	31.8	100.0	237.6	5.9	30.13	48.2	440.1	12.98	-137.7	0	48.4	34.4	39.7	0	199	0	0	0	42.6	39.3	0.0
2021 05/09 09:30	31.9	100.1	308.8	6.2	30.13	48.2	548.4	12.98	-137.7	0	48.7	35.3	41.5	0	199	0	0	0	42.6	39.4	0.0
2021 05/09 09:45	31.9	100.0	284.0	6.9	30.13	48.2	548.0	13.00	-137.7	0	48.7	36.2	40.4	0	199	0	0	0	42.7	39.4	0.0
2021 05/09 10:00	32.3	100.0	302.0	5.9	30.13	48.3	539.2	13.02	-137.7	0	48.2	36.2	42.4	0	199	0	0	0	43.1	39.5	0.0
2021 05/09 10:15	32.7	100.1	284.6	5.2	30.13	48.3	479.5	13.01	-137.7	0	48.7	37.1	41.6	0	199	0	0	0	43.3	39.6	0.0
2021 05/09 10:30	33.2	100.1	281.6	2.7	30.13	48.5	525.6	13.00	-137.7	0	48.8	37.1	41.3	0	199	0	0	0	43.8	39.8	0.0
2021 05/09 10:45	32.4	100.0	299.7	7.1	30.13	48.5	509.3	12.98	-137.7	0	48.7	37.1	41.8	0	199	0	0	0	44.1	40.0	0.0
2021 05/09 11:00	32.8	100.0	271.5	4.2	30.13	48.5	521.2	12.98	-137.7	0	48.4	38.9	43.5	0	199	0	0	0	44.9	40.3	0.0
2021 05/09 11:15	33.8	100.0	319.9	6.2	30.13	48.7	554.1	13.01	-137.7	0	48.4	39.8	44.2	0	199	0	0	0	45.8	40.7	0.0
2021 05/09 11:30	35.0	100.6	304.9	6.9	30.13	48.7	527.7	13.01	-137.7	0	48.2	39.8	43.8	0	199	0	0	0	47.0	41.2	0.0
2021 05/09 11:45	34.6	100.1	305.6	3.9	30.13	48.9	590.4	13.00	-137.7	0	47.4	42.5	45.0	0	199	0	0	0	47.9	41.7	0.0
2021 05/09 12:00	35.1	100.1	296.3	5.2	30.13	49.0	438.1	13.00	-137.7	0	46.7	40.7	43.8	0	199	0	0	0	49.2	42.1	0.0
2021 05/09 12:15	34.5	100.6	315.0	6.9	30.13	49.1	621.3	13.00	-137.7	0	47.9	39.8	46.1	0	199	0	0	0	49.8	42.4	0.0
2021 05/09 12:30	34.4	100.1	259.3	7.7	30.13	49.3	551.4	12.98	-137.7	0	47.8	41.6	46.7	0	199	0	0	0	51.0	43.2	0.0
2021 05/09 12:45	35.6	100.1	304.5	9.4	30.13	49.5	469.3	12.99	-137.7	0	47.5	41.6	46.0	0	199	0	0	0	51.9	43.5	0.0
2021 05/09 13:00	35.0	100.1	327.0	7.5	30.13	49.6	560.2	12.99	-137.7	0	47.7	41.6	46.8	0	199	0	0	0	52.9	44.5	0.0
2021 05/09 13:15	34.4	100.0	274.8	9.5	30.13	49.8	555.4	13.00	-137.7	0	47.5	43.4	47.4	0	199	0	0	0	53.9	45.1	0.0
2021 05/09 13:30	35.0	100.1	285.1	10.1	30.13	49.9	533.7	12.99	-137.6	0	47.4	41.6	46.1	0	199	0	0	0	54.8	45.6	0.0
2021 05/09 13:45	35.0	100.1	308.3	8.7	30.13	50.1	566.6	13.00	-137.6	0	47.4	44.3	48.6	0	199	0	0	0	55.4	45.9	0.0
2021 05/09 14:00	37.1	100.1	316.4	6.1	30.13	50.4	566.9	13.00	-137.6	0	47.6	44.3	48.0	0	199	0	0	0	55.8	46.0	0.0
2021 05/09 14:15	36.0	100.1	305.3	8.8	30.13	50.6	547.2	12.99	-137.6	0	47.9	43.4	48.9	0	199	0	0	0	56.1	46.2	0.0
2021 05/09 14:30	35.0	100.1	281.3	10.8	30.14	50.9	584.6	13.00	-137.6	0	47.1	46.1	49.7	0	199	0	0	0	56.5	46.5	0.0
2021 05/09 14:45	35.6	100.0	293.1	11.9	30.14	51.1	600.2	12.98	-137.6	0	47.2	42.5	47.9	0	199	0	0	0	57.2	46.5	0.0
2021 05/09 15:00	34.1	100.1	321.6	13.7	30.15	51.4	596.1	12.99	-137.6	0	47.0	42.5	46.5	0	199	0	0	0	57.6	46.4	0.0
2021 05/09 15:15	35.2	100.1	294.5	6.9	30.15	51.6	502.5	12.98	-137.6	0	47.3	42.5	47.7	0	199	0	0	0	57.5	46.4	0.0
2021 05/09 15:30	36.2	100.1	288.7	7.7	30.15	52.0	424.4	12.99	-137.6	0	46.4	41.6	46.7	0	199	0	0	0	57.4	46.4	0.0
2021 05/09 15:45	34.3	100.1	316.9	10.9	30.16	52.2	452.6	13.01	-137.5	0	47.1	38.9	44.7	0	199	0	0	0	57.3	46.4	0.0
2021 05/09 16:00	34.6	100.1	311.8	10.8	30.16	52.5	480.1	13.01	-137.5	0	46.0	39.8	45.7	0	199	0	0	0	56.9	46.2	0.0
2021 05/09 16:15	35.7	100.6	307.9	7.5	30.16	52.9	507.2	12.99	-137.5	0	46.8	41.6	48.4	0	199	0	0	0	56.6	46.2	0.0
2021 05/09 16:30	36.5	100.1	314.3	9.5	30.15	53.1	579.1	13.01	-137.5	0	46.9	41.6	46.1	0	199	0	0	0	56.9	46.2	0.0
2021 05/09 16:45	37.9	100.1	309.9	7.4	30.16	53.3	412.2	13.01	-137.5	0	46.8	38.9	43.3	0	199	0	0	0	57.2	46.1	0.0
2021 05/09 17:00	35.1	98.2	329.3	8.6	30.16	53.6	433.2	12.99	-137.5	0	47.5	38.9	43.5	0	199	0	0	0	56.1	46.0	0.0
2021 05/09 17:15	35.2	100.1	322.7	16.7	30.16	53.9	243.3	12.99	-137.5	0	47.8	38.0	42.3	0	200	0	0	0	55.9	45.8	0.0
2021 05/09 17:30	34.0	100.1	325.6	16.0	30.16	54.1	412.2	13.00	-137.3	0	47.5	37.1	42.4	0	200	0	0	0	55.4	45.6	0.0
2021 05/09 17:45	35.7	100.1	293.1	12.0	30.17	54.4	637.8	13.02	-137.3	0	47.6	39.8	46.5	0	200	0	0	0	54.9	45.3	0.0
2021 05/09 18:00	35.6	100.1	328.2	12.4	30.17	54.6	566.6	12.99	-137.3	0	47.8	38.0	45.3	0	200	0	0	0	54.8	45.2	0.0
2021 05/09 18:15	35.5	100.1	300.8	12.9	30.17	54.8	288.7	13.01	-137.3	0	47.8	38.0	43.6	0	200	0	0	0	54.5	45.1	0.0
2021 05/09 18:30	35.4	100.1	305.9	11.2	30.17	55.0	272.4	13.01	-137.3	0	47.8	38.0	43.1	0	200	0	0	0	54.1	44.9	0.0
2021 05/09 18:45	35.4	100.1	306.1	12.7	30.17	55.2	379.6	12.98	-137.3	0	47.7	38.0	43.5	0	200	0	0	0	53.9	44.9	0.0
2021 05/09 19:00	34.5	100.1	310.8	16.2	30.17	55.2	251.4	13.01	-137.2	0	47.5	37.1	42.7	0	200	0	0	0	53.7	44.7	0.0
2021 05/09 19:15	34.6	100.1	308.3	14.9	30.17	55.4	163.2	12.99	-137.2	0	47.7	37.1	42.3	0	201	0	0	0	53.2	44.5	0.0
2021 05/09 19:30	34.5	100.1	330.1	18.2	30.17	55.5	249.7	13.00	-137.2	0	47.9	36.2	42.0	0	201	0	0	0	52.9	44.3	0.0
2021 05/09 19:45	34.0	99.7	317.1	17.2	30.18	55.6	248.0	13.00	-137.2	0	47.9	36.2	41.7	0	201	0	0	0	52.4	44.1	0.0
2021 05/09 20:00	34.5	95.9	313.5	14.9	30.18	55.6	360.0	13.01	-137.2	0	47.0	36.2	41.8	0	201	0	0	0	51.9	43.9	0.0
2021 05/09 20:15	34.5	100.1	309.1	15.3	30.18	55.6	30.5	12.99	-137.2	0	47.6	35.3	41.7	0	201	0	0	0	51.4	43.7	0.0
2021 05/09 20:30	34.8	100.1	298.2	13.4	30.18	55.6	7.5	13.01	-137.2	0	47.7	36.2	41.8	0	201	0	0	0	51.1	43.5	0.0
2021 05/09 20:45	34.8	100.1	334.4	13.4	30.18	55.6	0.3	13.00	-137.2	0	47.7	36.2	41.7	0	201	0	0	0	50.9	43.4	0.0
2021 05/09 21:00	34.9	100.1	308.0	11.3	30.18	55.6	0.0	13.02	-137.2	0	47.8	35.3	41.1	0	201	0	0	0	50.2	43.2	0.0
2021 05/09 21:15	33.8	100.2	312.7	17.5	30.18	55.6	0.0	12.99	-137.3	0	47.7	35.3	40.5	0	201	0	0	0	49.8	43.1	0.0
2021 05/09 21:30	34.0	100.1	299.2	18.8	30.19	55.6	0.0	12.99	-137.3	0	47.8	35.3	40.5	0	201	0	0	0	49.4	42.9	0.0
2021 05/09 21:45	33.9	100.1	322.5	18.7	30.19	55.5	0.0	13.00	-137.3	0	46.8	35.3	40.2	0	201	0	0	0	48.9	42.6	0.0
2021 05/09 22:00	33.5	100.1	326.7	22.6	30.18	55.4	0.0	12.98	-137.3	0	46.4	34.4	39.9	0	201	0	0	0	48.4	42.5	0.0
2021 05/09 22:15	34.4	99.0	329.8	23.1	30.18	55.3	0.0	13.00	-137.3	0	47.1	35.3	39.7	0	201	0	0	0	48.2	42.3	0.0
2021 05/09 22:30	34.8	95.6	338.9	22.2	30.18	55.2	0.0	12.99	-137.3	0	47.0	34.4	39.8	0	201	0	0	0	47.7	42.2	0.0
2021 05/09 22:45	33.4	94.7	339.8	21.4	30.18	55.0	0.0	13.01	-137.3	0	47.5	35.3	39.8	0	201	0	0	0	47.5	42.1	0.0
2021 05/09 23:00	33.4	92.3	345.6	15.8	30.18	55.0	0.0	12.99	-137.3	0	47.6	35.3	39.8	0	201	0	0	0	47.1	42.0	0.0
2021 05/09 23:15	33.3	91.3	337.5	12.4	30.18	54.8	0.0	12.98	-137.5	0	47.7	34.4	39.7	0	201	0	0	0	46.7	41.7	0.0
2021 05/09 23:30	33.4	90.4	348.8	21.3	30.17	54.6	0.0	12.99	-137.5	0	47.6	33.5	39.0	0	201	0	0	0	46.0	41.6	0.0
2021 05/09 23:45	33.8	85.9	344.7	18.7	30.17	54.6	0.0	13.01	-137.5	0	47.5	34.4	39.4	0	201	0	0	0	45.3	41.4	0.0
2021 05/10 00:00	33.5	88.4	335.6	14.9	30.17	54.4	0.0	12.98	-137.5	0	47.0	33.5	38.7	0	201	0	0	0	45.1	41.3	0.0
2021 05/10 00:15	33.0	92.8	340.3	14.9	30.17	54.1	0.0	13.01	-137.5	0	47.3	32.6	38.1	0	201	0	0	0	44.8	41.1	0.0
2021 05/10 00:30	33.9	85.0	344.1	9.7	30.16	53.9	0.0	13.00	-137.5	0	47.9	32.6	37.5	0	201	0	0	0	44.5	41.0	0.0
2021 05/10 00:45	32.9	90.9	329.5	10.5	30.16	53.7	0.0	12.99	-137.5	0	47.8	32.6	37.6	0	201	0	0	0	44.5	40.8	0.0
2021 05/10 01:00	33.0	90.9	337.1	8.5	30.16	53.7	0.0	13.01	-137.5	0	47.4	32.6	36.7	0	201	0	0	0	44.1	40.6	0.0
2021 05/10 01:15	32.5	93.8	348.7	8.2	30.16	53.5	0.0	13.01	-137.5	0	47.6	32.6	36.4	0	201	0	0	0	44.0	40.5	0.0
2021 05/10 01:30	33.2	90.4	7.4	5.6	30.15	53.3	0.0	13.01	-137.5	0	47.4	32.6	35.1	0	201	0	0	0	43.7	40.3	0.0
2021 05/10 01:45	33.9	84.6	16.3	5.6	30.15	53.1	0.0	13.02	-137.5	0	47.0	32.6	34.6	0	201	0	0	0	43.3	40.0	0.0
2021 05/10 02:00	36.1	67.4	91.0	8.6	30.14	52.9	0.0	13.02	-137.6	0	47.2	32.6	33.5	0	201	0	0	0	43.0	39.8	0.0
2021 05/10 02:15	36.1	68.8	86.0	9.3	30.14	52.7	0.0	12.99	-137.6	0	47.2	32.6	32.8	0	201	0	0	0	42.5	39.7	0.0
2021 05/10 02:30	35.6	72.1	97.1	7.2	30.14	52.6	0.0	13.01	-137.6	0	47.1	31.7	31.5	0	201	0	0	0	42.5	39.7	0.0
2021 05/10 02:45	36.3	73.8	102.1	6.4	30.13	52.4	0.0	12.99	-137.6	0	47.7	32.6	31.3	0	201	0	0	0	42.1	39.5	0.0
2021 05/10 03:00	35.9	75.0	117.2	10.4	30.13	52.2	0.0	12.99	-137.6	0	47.3	32.6	30.9	0	201	0	0	0	41.6	39.3	0.0
2021 05/10 03:15	35.5	76.2	121.6	6.2	30.13	52.0	0.0	12.98	-137.6	0	48.0	32.6	30.0	0	201	0	0	0	41.3	39.0	0.0
2021 05/10 03:30	35.2	76.2	104.5	3.1	30.13	51.8	0.0	13.01	-137.6	0	48.0	32.6	30.0	0	201	0	0	0	40.7	38.9	0.0
2021 05/10 03:45	35.1	77.4	83.6	1.2	30.13	51.6	0.0	13.01	-137.6	0	47.8	32.6	30.0	0	201	0	0	0	40.6	38.8	0.0
2021 05/10 04:00	35.0	77.4	84.6	0.0	30.14	51.5	0.0	12.99	-137.6	0	48.0	32.6	29.8	0	201	0	0	0	40.3	38.6	0.0
2021 05/10 04:15	34.3	77.8	0.2	2.4	30.14	51.4	0.0	12.99	-137.6	0	47.5	32.6	29.5	0	201	0	0	0	40.2	38.5	0.0
2021 05/10 04:30	35.1	75.0	67.5	2.9	30.13	51.1	0.0	12.99	-137.7	0	47.4	32.6	28.9	0	201	0	0	0	39.6	38.2	0.0
2021 05/10 04:45	35.6	73.1	145.4	6.2	30.13	51.0	0.0	13.01	-137.6	0	47.2	32.6	29.1	0	201	0	0	0	39.5	38.1	0.0
2021 05/10 05:00	35.4	74.0	137.0	3.5	30.13	50.7	0.0	12.99	-137.7	0	47.3	32.6	28.4	0	201	0	0	0	39.3	38.0	0.0
2021 05/10 05:15	35.4	74.8	161.6	6.2	30.13	50.6	0.0	12.99	-137.7	0	47.6	32.6	28.6	0	201	0	0	0	39.0	37.8	0.0
2021 05/10 05:30	35.1	76.1	144.2	9.1	30.12	50.5	4.1	13.00	-137.6	0	47.4	32.6	28.2	0	201	0	0	0	38.8	37.6	0.0
2021 05/10 05:45	34.9	77.7	133.2	13.4	30.11	50.3	50.2	12.99	-137.6	0	47.5	33.5	28.5	0	201	0	0	0	38.6	37.5	0.0
2021 05/10 06:00	35.1	78.1	133.0	18.7	30.11	50.1	114.0	12.98	-137.6	0	47.5	34.4	27.9	0	201	0	0	0	38.2	37.4	0.0
2021 05/10 06:15	35.0	78.8	129.8	23.2	30.11	50.0	197.8	12.98	-137.6	0	46.7	35.3	27.9	0	201	0	0	0	38.1	37.1	0.0
2021 05/10 06:30	34.9	79.3	131.0	20.0	30.11	49.9	275.2	13.00	-137.6	0	-997.0	-997.0	27.7	0	201	0	0	0	37.9	37.1	0.0
2021 05/10 06:45	34.8	80.3	120.7	18.5	30.11	49.7	329.5	12.98	-137.7	0	47.7	37.1	28.2	0	201	0	0	0	37.9	37.0	0.0
2021 05/10 07:00	34.9	82.0	119.3	18.2	30.11	49.5	372.2	13.00	-137.7	0	47.9	37.1	28.9	0	201	0	0	0	37.9	36.9	0.0
2021 05/10 07:15	35.1	82.2	141.5	15.2	30.11	49.3	398.7	12.98	-137.7	0	47.3	38.9	30.3	0	201	0	0	0	37.9	36.8	0.0
2021 05/10 07:30	35.6	83.4	131.4	13.5	30.12	49.2	416.3	13.00	-137.7	0	47.4	40.7	31.8	0	201	0	0	0	37.9	36.8	0.0
2021 05/10 07:45	36.0	82.7	157.0	13.8	30.12	49.1	431.3	13.00	-137.7	0	46.8	41.6	33.6	0	201	0	0	0	38.1	36.8	0.0
2021 05/10 08:00	35.6	81.1	89.9	10.0	30.12	49.1	447.9	12.97	-137.7	0	47.4	41.6	38.6	0	201	0	0	0	38.5	36.8	0.0
2021 05/10 08:15	37.3	81.8	84.4	6.6	30.13	49.0	461.8	13.00	-137.7	0	46.9	42.5	41.6	0	201	0	0	0	39.0	37.0	0.0
2021 05/10 08:30	36.3	79.7	83.0	8.7	30.13	49.0	498.4	12.98	-137.7	0	47.5	42.5	42.9	0	201	0	0	0	39.8	37.2	0.0
2021 05/10 08:45	37.0	77.1	89.3	3.9	30.14	49.1	517.4	13.01	-137.7	0	46.9	43.4	43.4	0	201	0	0	0	40.4	37.4	0.0
2021 05/10 09:00	37.2	73.4	112.4	7.5	30.14	49.3	534.4	13.00	-137.6	0	46.4	43.4	44.5	0	201	0	0	0	41.1	37.7	0.0
2021 05/10 09:15	38.9	72.6	84.0	8.6	30.14	49.3	548.6	12.98	-137.7	0	46.5	44.3	45.4	0	201	0	0	0	41.7	38.5	0.0
2021 05/10 09:30	38.5	68.5	70.8	4.8	30.14	49.5	561.9	13.00	-137.6	0	46.3	45.2	45.8	0	201	0	0	0	42.5	39.3	0.0
2021 05/10 09:45	39.1	68.3	75.7	6.5	30.15	49.6	570.7	12.99	-137.6	0	47.0	44.3	46.6	0	201	0	0	0	43.7	39.8	0.0
2021 05/10 10:00	39.9	70.4	123.3	4.9	30.15	49.7	571.4	12.98	-137.6	0	45.9	46.1	47.7	0	201	0	0	0	44.8	40.7	0.0
2021 05/10 10:15	39.4	68.5	68.4	5.9	30.15	49.9	572.4	13.01	-137.6	0	47.1	45.2	47.8	0	201	0	0	0	45.9	41.6	0.0
2021 05/10 10:30	42.1	65.8	173.1	7.5	30.15	50.1	576.1	12.98	-137.6	0	46.2	46.1	49.2	0	201	0	0	0	47.2	42.7	0.0
2021 05/10 10:45	40.6	64.5	72.0	6.5	30.16	50.3	574.7	13.00	-137.6	0	46.3	47.0	49.7	0	201	0	0	0	47.8	43.3	0.0
2021 05/10 11:00	40.9	61.1	50.0	9.2	30.16	50.5	573.7	13.01	-137.6	0	47.0	47.0	50.3	0	201	0	0	0	49.4	44.4	0.0
2021 05/10 11:15	41.5	62.0	56.2	6.1	30.16	50.7	573.4	13.00	-137.6	0	46.8	47.9	50.1	0	201	0	0	0	50.9	45.1	0.0
2021 05/10 11:30	46.6	60.8	91.2	8.5	30.17	50.9	574.0	12.99	-137.6	0	47.1	47.9	52.2	0	201	0	0	0	52.4	46.2	0.0
2021 05/10 11:45	44.0	57.9	103.1	5.2	30.17	51.1	577.1	12.99	-137.6	0	46.5	51.5	53.1	0	201	0	0	0	54.1	47.4	0.0
2021 05/10 12:00	44.3	55.8	58.1	4.5	30.17	51.4	579.1	13.01	-137.6	0	46.6	53.3	54.4	0	201	0	0	0	55.6	48.2	0.0
2021 05/10 12:15	45.7	56.6	143.1	7.3	30.17	51.8	578.5	13.01	-137.6	0	46.3	52.4	53.7	0	201	0	0	0	57.2	48.8	0.0
2021 05/10 12:30	45.1	54.4	217.9	5.4	30.17	52.0	552.7	12.99	-137.5	0	46.7	51.5	54.3	0	201	0	0	0	58.5	49.4	0.0
2021 05/10 12:45	47.2	48.5	241.5	5.6	30.17	52.3	558.4	13.01	-137.5	0	46.6	52.4	56.7	0	201	0	0	0	59.1	50.0	0.0
2021 05/10 13:00	46.5	47.0	225.4	4.8	30.18	52.6	558.1	13.00	-137.5	0	46.4	54.2	55.1	0	201	0	0	0	60.0	50.4	0.0
2021 05/10 13:15	48.5	45.5	183.7	7.9	30.18	52.9	557.8	12.99	-137.5	0	46.9	50.6	54.2	0	201	0	0	0	60.7	51.0	0.0
2021 05/10 13:30	47.2	48.8	209.5	4.6	30.19	53.2	549.6	13.01	-137.5	0	46.2	53.3	56.0	0	201	0	0	0	61.4	50.9	0.0
2021 05/10 13:45	49.6	45.3	145.5	5.1	30.19	53.5	544.5	13.01	-137.5	0	46.2	53.3	55.0	0	201	0	0	0	62.0	51.1	0.0
2021 05/10 14:00	49.3	46.9	196.0	6.9	30.19	53.7	544.9	13.01	-137.3	0	46.4	53.3	55.8	0	201	0	0	0	62.3	51.1	0.0
2021 05/10 14:15	49.0	44.8	132.0	5.9	30.20	54.1	543.9	13.00	-137.3	0	46.1	53.3	55.7	0	201	0	0	0	62.9	51.1	0.0
2021 05/10 14:30	49.2	42.3	277.9	5.9	30.20	54.4	541.5	12.99	-137.3	0	46.3	55.1	57.0	0	201	0	0	0	63.3	50.9	0.0
2021 05/10 14:45	48.5	37.2	234.4	7.5	30.20	54.6	544.2	12.99	-137.3	0	45.6	56.0	57.3	0	201	0	0	0	63.5	50.9	0.0
2021 05/10 15:00	48.7	41.3	257.6	1.5	30.20	55.0	533.3	12.98	-137.2	0	45.9	56.0	58.2	0	201	0	0	0	63.8	50.6	0.0
2021 05/10 15:15	49.8	47.2	224.4	4.4	30.20	55.2	540.5	13.01	-137.2	0	45.1	55.1	59.2	0	201	0	0	0	64.0	50.6	0.0
2021 05/10 15:30	48.3	47.4	356.2	3.6	30.21	55.6	549.3	13.01	-137.2	0	44.9	55.1	58.6	0	201	0	0	0	64.2	50.6	0.0
2021 05/10 15:45	48.3	48.9	296.2	6.5	30.21	55.9	549.3	13.00	-137.2	0	45.8	55.1	58.0	0	201	0	0	0	64.9	50.5	0.0
2021 05/10 16:00	49.6	51.8	319.7	4.5	30.21	56.3	545.9	13.01	-137.1	0	44.9	54.2	60.2	0	201	0	0	0	65.0	50.4	0.0
2021 05/10 16:15	48.4	50.2	327.5	12.1	30.21	56.5	439.4	12.98	-137.1	0	44.5	52.4	55.8	0	201	0	0	0	65.5	50.2	0.0
2021 05/10 16:30	48.5	49.5	310.0	13.1	30.21	56.9	557.4	12.99	-137.0	0	45.7	54.2	58.3	0	201	0	0	0	65.6	50.2	0.0
2021 05/10 16:45	47.6	58.4	318.4	12.1	30.21	57.4	547.6	13.02	-137.0	0	46.2	53.3	58.2	0	201	0	0	0	66.0	50.2	0.0
2021 05/10 17:00	47.1	63.6	304.2	13.7	30.22	57.8	543.5	12.99	-136.9	0	45.3	53.3	59.2	0	201	0	0	0	66.6	50.2	0.0
2021 05/10 17:15	48.4	64.7	321.8	12.8	30.23	58.2	545.2	13.00	-136.9	0	45.9	52.4	57.5	0	201	0	0	0	67.4	50.4	0.0
2021 05/10 17:30	47.7	63.2	311.8	12.0	30.23	58.6	552.7	12.99	-136.7	0	45.6	53.3	57.5	0	201	0	0	0	67.8	50.4	0.0
2021 05/10 17:45	48.4	62.0	318.4	12.8	30.23	59.0	560.8	13.01	-136.6	0	45.6	53.3	59.6	0	201	0	0	0	68.0	50.5	0.0
2021 05/10 18:00	48.8	63.7	318.5	15.9	30.23	59.4	558.0	13.01	-136.5	0	45.8	52.4	60.2	0	201	0	0	0	68.0	50.5	0.0
2021 05/10 18:15	47.4	64.5	303.4	10.8	30.24	59.8	562.8	12.99	-136.4	0	45.3	52.4	58.9	0	201	0	0	0	67.8	50.6	0.0
2021 05/10 18:30	47.2	66.5	280.9	11.9	30.25	60.2	550.5	13.00	-136.2	0	45.2	51.5	59.4	0	201	0	0	0	67.7	50.6	0.0
2021 05/10 18:45	46.7	69.5	310.0	9.8	30.25	60.6	499.0	12.99	-136.1	0	45.1	49.7	55.8	0	201	0	0	0	67.4	50.5	0.0
2021 05/10 19:00	46.1	71.5	305.9	11.7	30.25	61.0	493.6	13.00	-136.0	0	45.6	48.8	54.6	0	201	0	0	0	67.2	50.4	0.0
2021 05/10 19:15	44.9	75.2	321.4	15.7	30.26	61.4	497.6	13.01	-135.9	0	45.6	47.9	54.0	0	201	0	0	0	66.3	50.3	0.0
2021 05/10 19:30	44.4	76.7	314.3	18.7	30.26	61.8	522.7	12.99	-135.7	0	45.1	47.0	52.1	0	201	0	0	0	65.5	50.2	0.0
2021 05/10 19:45	43.9	76.9	327.3	17.5	30.26	62.0	501.7	13.00	-135.6	0	45.8	46.1	51.3	0	201	0	0	0	64.8	50.1	0.0
2021 05/10 20:00	43.2	77.5	330.1	18.7	30.27	62.4	388.1	13.01	-135.4	0	45.9	45.2	49.7	0	201	0	0	0	64.0	49.8	0.0
2021 05/10 20:15	42.9	77.7	326.7	17.8	30.27	62.6	531.9	13.01	-135.4	0	45.8	44.3	48.9	0	201	0	0	0	63.1	49.6	0.0
2021 05/10 20:30	42.5	76.7	328.4	17.3	30.27	62.9	52.9	13.01	-135.3	0	45.7	42.5	48.6	0	201	0	0	0	62.7	49.5	0.0
2021 05/10 20:45	41.9	77.2	326.4	17.2	30.27	63.1	6.8	12.99	-135.1	0	46.1	42.5	47.8	0	201	0	0	0	61.9	49.2	0.0
2021 05/10 21:00	41.7	75.8	326.3	16.5	30.28	63.2	0.7	13.00	-135.1	0	46.0	41.6	46.9	0	201	0	0	0	61.1	48.8	0.0
2021 05/10 21:15	41.2	75.3	324.6	12.6	30.28	63.3	0.0	13.01	-135.1	0	46.0	40.7	46.2	0	201	0	0	0	60.3	48.5	0.0
2021 05/10 21:30	41.5	78.4	327.9	8.6	30.28	63.3	0.0	13.01	-135.1	0	45.9	40.7	45.7	0	201	0	0	0	59.6	48.3	0.0
2021 05/10 21:45	42.2	76.5	339.2	6.9	30.29	63.3	0.0	13.02	-135.3	0	45.6	40.7	45.6	0	201	0	0	0	58.8	47.9	0.0
2021 05/10 22:00	42.7	75.0	326.1	7.3	30.29	63.3	0.0	13.02	-135.3	0	45.5	40.7	43.3	0	201	0	0	0	57.9	47.7	0.0
2021 05/10 22:15	43.6	71.4	339.8	3.9	30.29	63.3	0.0	13.01	-135.3	0	45.9	40.7	43.6	0	201	0	0	0	57.2	47.4	0.0
2021 05/10 22:30	44.8	67.3	348.1	1.9	30.29	63.2	0.0	12.99	-135.4	0	45.6	41.6	42.3	0	201	0	0	0	56.7	47.2	0.0
2021 05/10 22:45	45.2	64.8	334.8	3.3	30.29	63.1	0.0	13.01	-135.4	0	46.1	40.7	41.2	0	201	0	0	0	55.9	46.9	0.0
2021 05/10 23:00	45.1	65.1	318.9	3.6	30.28	63.1	0.0	12.99	-135.5	0	45.8	40.7	39.6	0	201	0	0	0	55.4	46.7	0.0
2021 05/10 23:15	45.1	66.5	314.9	1.6	30.28	62.9	0.0	12.99	-135.5	0	45.8	40.7	39.0	0	201	0	0	0	54.6	46.4	0.0
2021 05/10 23:30	44.8	66.6	315.0	0.7	30.27	62.9	0.0	12.99	-135.6	0	45.9	39.8	38.6	0	201	0	0	0	54.0	46.0	0.0
2021 05/10 23:45	44.5	68.0	284.0	4.5	30.27	62.6	0.0	13.01	-135.6	0	45.7	41.6	37.9	0	201	0	0	0	53.3	45.8	0.0
2021 05/11 00:00	41.7	77.9	277.5	6.8	30.27	62.4	0.0	13.01	-135.7	0	45.6	40.7	36.9	0	201	0	0	0	52.7	45.6	0.0
2021 05/11 00:15	42.3	75.7	308.6	9.3	30.27	62.4	0.0	12.99	-135.7	0	45.4	39.8	37.7	0	201	0	0	0	51.9	45.3	0.0
2021 05/11 00:30	42.2	76.6	320.8	11.2	30.26	62.2	0.0	13.01	-135.9	0	45.8	40.7	37.7	0	201	0	0	0	51.5	45.2	0.0
2021 05/11 00:45	41.7	77.4	335.3	10.4	30.26	62.0	0.0	13.02	-135.9	0	46.3	39.8	36.6	0	201	0	0	0	51.1	44.9	0.0
2021 05/11 01:00	42.2	72.6	333.0	7.8	30.26	61.8	0.0	13.01	-136.0	0	45.9	40.7	36.0	0	201	0	0	0	51.1	44.9	0.0
2021 05/11 01:15	43.3	48.2	327.1	7.4	30.25	61.7	0.0	12.99	-136.0	0	46.0	41.6	35.7	0	201	0	0	0	49.8	44.4	0.0
2021 05/11 01:30	44.6	44.6	321.9	5.1	30.25	61.6	0.0	13.01	-136.1	0	46.0	41.6	34.9	0	201	0	0	0	49.2	44.2	0.0
2021 05/11 01:45	43.5	60.8	336.1	4.0	30.25	61.4	0.0	13.01	-136.1	0	45.8	41.6	35.2	0	201	0	0	0	48.6	44.0	0.0
2021 05/11 02:00	43.4	56.0	17.4	2.9	30.24	61.2	0.0	12.99	-136.2	0	46.0	41.6	34.2	0	201	0	0	0	48.3	43.8	0.0
2021 05/11 02:15	43.6	63.6	1.2	1.5	30.24	61.0	0.0	13.01	-136.2	0	45.5	40.7	35.3	0	201	0	0	0	47.8	43.5	0.0
2021 05/11 02:30	43.3	64.7	69.7	1.2	30.24	60.9	0.0	13.01	-136.4	0	46.3	40.7	34.6	0	201	0	0	0	47.6	43.4	0.0
2021 05/11 02:45	42.9	61.8	163.7	4.0	30.23	60.7	0.0	13.01	-136.4	0	45.8	40.7	33.9	0	201	0	0	0	47.4	43.2	0.0
2021 05/11 03:00	42.5	71.8	157.3	4.8	30.23	60.5	0.0	13.01	-136.4	0	45.8	40.7	33.1	0	201	0	0	0	47.2	43.1	0.0
2021 05/11 03:15	42.3	71.6	148.2	5.5	30.22	60.3	0.0	12.99	-136.5	0	46.1	39.8	32.8	0	201	0	0	0	47.1	42.9	0.0
2021 05/11 03:30	42.5	70.2	142.8	4.8	30.22	60.1	0.0	13.01	-136.5	0	46.0	39.8	33.0	0	201	0	0	0	46.6	42.6	0.0
2021 05/11 03:45	42.4	69.7	142.6	0.9	30.21	59.9	0.0	12.99	-136.6	0	46.1	39.8	32.3	0	201	0	0	0	46.1	42.5	0.0
2021 05/11 04:00	43.6	70.2	134.7	1.9	30.21	59.8	0.0	13.01	-136.6	0	45.6	39.8	32.3	0	201	0	0	0	45.8	42.3	0.0
2021 05/11 04:15	42.4	70.0	114.2	2.0	30.21	59.7	0.0	13.01	-136.6	0	46.0	39.8	31.8	0	201	0	0	0	45.6	42.2	0.0
2021 05/11 04:30	42.3	70.0	105.3	1.4	30.21	59.5	0.0	13.01	-136.7	0	46.2	39.8	31.7	0	201	0	0	0	45.3	42.1	0.0
2021 05/11 04:45	42.3	69.8	107.9	0.2	30.21	59.3	0.0	13.01	-136.7	0	45.5	39.8	31.3	0	201	0	0	0	44.9	41.9	0.0
2021 05/11 05:00	41.7	72.5	42.8	0.1	30.20	59.1	0.0	13.01	-136.7	0	45.9	39.8	31.1	0	201	0	0	0	44.4	41.7	0.0
2021 05/11 05:15	41.8	72.1	130.5	3.6	30.20	59.0	0.0	12.99	-136.9	0	46.1	38.9	31.3	0	201	0	0	0	44.2	41.5	0.0
2021 05/11 05:30	41.7	72.4	181.4	1.1	30.20	58.8	4.8	13.01	-136.9	0	45.7	39.8	30.5	0	201	0	0	0	43.9	41.4	0.0
2021 05/11 05:45	41.7	72.1	180.7	1.8	30.20	58.6	50.5	13.01	-136.9	0	45.5	39.8	30.4	0	201	0	0	0	43.5	41.2	0.0
2021 05/11 06:00	41.6	72.7	150.1	6.6	30.20	58.4	125.9	13.01	-136.9	0	45.6	39.8	30.4	0	201	0	0	0	43.2	41.0	0.0
2021 05/11 06:15	41.8	70.8	146.6	8.6	30.20	58.2	209.0	13.01	-136.9	0	45.4	41.6	30.6	0	201	0	0	0	43.1	40.8	0.0
2021 05/11 06:30	42.2	70.7	131.1	8.2	30.20	58.0	279.2	12.99	-136.9	0	45.6	42.5	31.1	0	201	0	0	0	43.0	40.7	0.0
2021 05/11 06:45	41.6	72.5	160.5	5.2	30.20	58.0	332.5	13.02	-137.0	0	45.8	43.4	31.1	0	201	0	0	0	42.7	40.6	0.0
2021 05/11 07:00	42.4	72.7	120.6	7.4	30.19	57.8	368.8	13.01	-137.0	0	45.8	43.4	32.5	0	201	0	0	0	42.5	40.5	0.0
2021 05/11 07:15	41.5	71.4	107.6	9.7	30.20	57.7	395.3	13.01	-137.0	0	45.5	45.2	33.5	0	201	0	0	0	42.5	40.4	0.0
2021 05/11 07:30	41.5	75.8	87.2	6.9	30.20	57.6	415.6	13.01	-137.0	0	45.2	47.0	34.8	0	201	0	0	0	42.6	40.4	0.0
2021 05/11 07:45	41.3	74.7	108.1	8.5	30.20	57.6	431.2	12.99	-137.0	0	45.5	47.0	37.5	0	201	0	0	0	42.9	40.4	0.0
2021 05/11 08:00	40.9	75.8	96.5	8.9	30.20	57.6	450.6	12.99	-137.0	0	43.8	46.1	43.8	0	201	0	0	0	43.5	40.5	0.0
2021 05/11 08:15	42.3	70.2	105.5	10.4	30.20	57.5	472.3	13.01	-137.0	0	45.5	47.0	46.1	0	201	0	0	0	43.9	40.6	0.0
2021 05/11 08:30	42.1	69.3	119.2	8.9	30.20	57.6	498.7	13.01	-137.0	0	45.5	47.0	47.4	0	201	0	0	0	44.4	40.8	0.0
2021 05/11 08:45	42.1	69.1	103.6	9.7	30.21	57.6	517.4	13.00	-137.0	0	44.5	49.7	48.0	0	201	0	0	0	45.3	41.1	0.0
2021 05/11 09:00	42.8	70.3	112.6	9.7	30.21	57.6	533.3	13.01	-137.0	0	45.5	47.9	49.4	0	201	0	0	0	45.7	41.3	0.0
2021 05/11 09:15	43.2	67.5	92.1	8.9	30.21	57.6	551.0	12.99	-137.0	0	45.4	47.9	50.2	0	201	0	0	0	46.7	42.3	0.0
2021 05/11 09:30	44.4	66.8	82.8	7.4	30.21	57.8	563.9	13.01	-137.0	0	45.5	49.7	50.5	0	201	0	0	0	47.5	43.0	0.0
2021 05/11 09:45	44.6	66.4	88.1	5.5	30.21	57.8	572.7	13.01	-136.9	0	45.6	49.7	51.5	0	201	0	0	0	48.3	43.8	0.0
2021 05/11 10:00	45.5	64.1	90.9	4.1	30.21	58.0	574.7	12.99	-136.9	0	45.2	50.6	52.1	0	201	0	0	0	49.4	44.7	0.0
2021 05/11 10:15	45.7	59.7	80.8	4.5	30.22	58.0	574.7	12.99	-136.9	0	44.9	51.5	53.1	0	201	0	0	0	50.6	45.6	0.0
2021 05/11 10:30	47.0	61.5	73.3	2.0	30.22	58.2	572.3	12.99	-136.9	0	45.1	50.6	53.1	0	201	0	0	0	51.9	46.7	0.0
2021 05/11 10:45	47.9	52.5	204.9	7.5	30.22	58.4	570.3	13.02	-136.7	0	44.9	51.5	53.8	0	201	0	0	0	52.5	47.1	0.0
2021 05/11 11:00	49.9	54.2	107.5	6.9	30.22	58.6	566.9	12.99	-136.7	0	44.5	53.3	53.8	0	201	0	0	0	54.1	48.0	0.0
2021 05/11 11:15	49.8	42.8	188.3	6.6	30.23	58.6	565.2	12.99	-136.7	0	44.9	53.3	55.1	0	201	0	0	0	55.7	49.4	0.0
2021 05/11 11:30	49.9	43.0	101.0	5.9	30.23	58.9	563.2	12.99	-136.7	0	45.2	55.1	56.1	0	201	0	0	0	57.4	50.1	0.0
2021 05/11 11:45	49.2	44.1	108.9	7.3	30.23	59.1	561.8	12.99	-136.6	0	44.3	56.9	56.5	0	201	0	0	0	59.2	50.7	0.0
2021 05/11 12:00	50.8	42.0	95.8	8.1	30.23	59.3	559.5	13.00	-136.6	0	44.9	56.0	56.7	0	201	0	0	0	60.1	51.1	0.0
2021 05/11 12:15	51.4	38.9	130.5	7.7	30.24	59.5	555.7	12.99	-136.6	0	45.4	54.2	57.6	0	201	0	0	0	62.3	52.1	0.0
2021 05/11 12:30	51.4	40.6	235.9	5.2	30.24	59.6	551.6	12.99	-136.5	0	45.5	55.1	59.1	0	201	0	0	0	63.6	52.8	0.0
2021 05/11 12:45	52.5	40.9	246.9	3.6	30.24	59.7	547.2	13.01	-136.5	0	44.5	56.9	59.3	0	201	0	0	0	64.1	53.1	0.0
2021 05/11 13:00	52.1	37.5	45.5	3.2	30.24	59.9	541.7	12.99	-136.5	0	44.8	57.8	59.3	0	201	0	0	0	65.0	53.7	0.0
2021 05/11 13:15	53.3	40.8	123.5	6.4	30.24	60.2	535.0	12.99	-136.4	0	45.0	58.7	58.7	0	201	0	0	0	65.6	54.2	0.0
2021 05/11 13:30	54.3	37.4	184.6	8.3	30.24	60.3	528.8	13.01	-136.4	0	44.6	56.9	61.1	0	201	0	0	0	66.3	54.6	0.0
2021 05/11 13:45	53.8	35.8	96.0	4.8	30.25	60.5	525.4	13.01	-136.2	0	44.5	58.7	61.5	0	201	0	0	0	66.8	54.8	0.0
2021 05/11 14:00	52.9	38.1	182.0	7.2	30.25	60.8	525.4	12.99	-136.2	0	45.1	58.7	61.8	0	201	0	0	0	67.4	54.8	0.0
2021 05/11 14:15	55.0	36.1	169.2	4.4	30.25	61.0	525.4	13.01	-136.1	0	44.6	60.5	61.3	0	201	0	0	0	67.8	54.7	0.0
2021 05/11 14:30	54.4	33.9	181.4	5.4	30.25	61.2	524.8	12.99	-136.0	0	44.7	60.5	61.1	0	201	0	0	0	68.3	54.5	0.0
2021 05/11 14:45	54.5	33.9	48.7	1.2	30.26	61.6	523.4	13.01	-136.0	0	43.4	59.6	62.2	0	201	0	0	0	68.6	54.3	0.0
2021 05/11 15:00	58.3	32.9	274.6	1.4	30.26	61.8	521.7	13.01	-135.9	0	43.7	60.5	62.7	0	201	0	0	0	68.5	54.6	0.0
2021 05/11 15:15	53.8	33.5	349.7	4.9	30.26	62.0	520.0	13.01	-135.9	0	43.6	61.4	62.9	0	201	0	0	0	68.9	54.3	0.0
2021 05/11 15:30	53.9	34.4	17.5	5.2	30.26	62.2	520.0	12.99	-135.7	0	44.0	61.4	64.3	0	201	0	0	0	69.1	54.2	0.0
2021 05/11 15:45	54.8	34.5	90.1	2.4	30.26	62.5	520.4	13.01	-135.6	0	42.8	61.4	64.5	0	201	0	0	0	69.3	54.2	0.0
2021 05/11 16:00	56.5	32.7	215.8	6.2	30.26	62.9	517.6	13.01	-135.5	0	44.0	61.4	65.5	0	201	0	0	0	69.8	54.1	0.0
2021 05/11 16:15	57.2	38.3	238.0	5.2	30.27	63.1	524.8	12.98	-135.4	0	43.9	61.4	62.7	0	201	0	0	0	70.4	54.0	0.0
2021 05/11 16:30	54.8	35.8	344.0	8.8	30.27	63.4	531.5	13.00	-135.3	0	44.0	60.5	64.7	0	201	0	0	0	70.8	53.9	0.0
2021 05/11 16:45	56.0	37.1	325.0	9.8	30.27	63.7	531.9	13.01	-135.0	0	43.3	60.5	64.2	0	201	0	0	0	71.3	53.9	0.0
2021 05/11 17:00	54.5	39.1	317.0	12.6	30.28	64.1	543.1	13.00	-134.9	0	42.8	60.5	65.6	0	201	0	0	0	72.0	53.8	0.0
2021 05/11 17:15	54.6	41.8	318.6	16.5	30.28	64.4	535.9	12.98	-134.6	0	42.1	59.6	65.8	0	201	0	0	0	72.6	53.9	0.0
2021 05/11 17:30	54.1	47.8	302.8	14.9	30.29	64.8	552.5	13.00	-134.4	0	41.5	58.7	66.1	0	201	0	0	0	72.9	54.0	0.0
2021 05/11 17:45	54.0	54.3	294.1	15.7	30.29	65.1	557.9	12.99	-134.1	0	43.4	57.8	65.2	0	201	0	0	0	72.9	54.0	0.0
2021 05/11 18:00	52.9	56.2	325.3	13.3	30.30	65.5	575.9	12.99	-133.8	0	42.1	58.7	65.8	0	201	0	0	0	72.9	54.1	0.0
2021 05/11 18:15	52.4	59.4	326.3	15.5	30.30	66.0	552.5	13.01	-133.5	0	43.4	56.9	63.2	0	201	0	0	0	72.8	54.2	0.0
2021 05/11 18:30	52.1	61.9	331.6	16.0	30.31	66.4	528.4	13.01	-133.2	0	41.8	56.9	62.5	0	201	0	0	0	72.7	54.2	0.0
2021 05/11 18:45	51.6	63.9	295.9	13.5	30.31	66.7	457.5	13.01	-132.8	0	43.5	55.1	59.7	0	201	0	0	0	72.5	54.2	0.0
2021 05/11 19:00	51.0	65.7	316.2	17.9	30.32	67.2	450.7	12.99	-132.4	0	43.6	53.3	58.9	0	201	0	0	0	72.1	54.2	0.0
2021 05/11 19:15	50.4	67.8	331.0	18.5	30.32	67.5	479.2	12.98	-132.1	0	43.3	53.3	57.5	0	201	0	0	0	71.2	54.1	0.0
2021 05/11 19:30	50.0	66.4	316.5	16.9	30.32	67.8	477.9	13.00	-131.7	0	43.3	52.4	56.4	0	201	0	0	0	70.4	54.0	0.0
2021 05/11 19:45	49.5	67.2	328.2	18.0	30.32	68.1	475.5	13.01	-131.4	0	43.8	51.5	55.5	0	201	0	0	0	69.6	53.8	0.0
2021 05/11 20:00	49.0	67.8	338.3	14.4	30.32	68.3	466.3	13.01	-131.2	0	43.8	49.7	53.8	0	201	0	0	0	68.7	53.4	0.0
2021 05/11 20:15	49.1	66.8	344.9	8.9	30.33	68.5	371.7	13.02	-131.0	0	43.9	48.8	51.5	0	201	0	0	0	68.0	53.2	0.0
2021 05/11 20:30	49.1	65.7	346.8	8.5	30.33	68.7	40.0	12.99	-130.8	0	43.8	47.9	48.9	0	201	0	0	0	67.0	52.9	0.0
2021 05/11 20:45	50.4	59.0	25.6	9.5	30.34	68.9	6.8	13.01	-130.7	0	44.0	47.9	47.9	0	201	0	0	0	66.7	52.8	0.0
2021 05/11 21:00	50.5	54.5	40.1	10.5	30.34	69.0	0.7	12.99	-130.7	0	43.8	47.0	47.0	0	201	0	0	0	65.8	52.4	0.0
2021 05/11 21:15	50.4	55.1	74.1	14.4	30.35	69.1	0.0	13.01	-130.7	0	43.7	47.0	45.4	0	201	0	0	0	65.0	52.1	0.0
2021 05/11 21:30	49.9	58.6	90.9	17.9	30.35	69.1	0.0	12.99	-130.8	0	43.8	47.9	44.7	0	201	0	0	0	64.1	51.6	0.0
2021 05/11 21:45	48.9	60.1	80.4	23.1	30.34	69.0	0.0	13.01	-131.0	0	43.8	47.9	44.5	0	201	0	0	0	63.3	51.3	0.0
2021 05/11 22:00	48.3	62.1	75.9	22.6	30.34	68.9	0.0	12.98	-131.2	0	43.8	47.0	44.2	0	201	0	0	0	62.3	51.0	0.0
2021 05/11 22:15	48.0	64.6	78.6	24.4	30.34	68.7	0.0	12.97	-131.4	0	43.7	47.0	43.9	0	201	0	0	0	61.4	50.6	0.0
2021 05/11 22:30	47.5	63.8	70.2	21.4	30.34	68.4	0.0	12.99	-131.7	0	44.0	46.1	44.0	0	201	0	0	0	60.5	50.3	0.0
2021 05/11 22:45	47.4	65.2	71.4	24.7	30.34	68.2	0.0	13.00	-132.1	0	42.7	46.1	43.8	0	201	0	0	0	60.1	50.2	0.0
2021 05/11 23:00	46.9	63.6	77.1	23.1	30.33	67.9	0.0	13.00	-132.4	0	43.2	46.1	45.4	0	201	0	0	0	59.3	49.8	0.0
2021 05/11 23:15	47.4	60.4	74.3	27.6	30.33	67.6	0.0	12.97	-132.8	0	43.1	47.0	45.1	0	201	0	0	0	58.8	49.6	0.0
2021 05/11 23:30	48.3	59.7	80.1	27.9	30.32	67.3	0.0	12.99	-133.2	0	43.4	46.1	46.8	0	201	0	0	0	58.4	49.4	0.0
2021 05/11 23:45	47.2	58.2	80.2	26.6	30.32	66.9	0.0	12.99	-133.4	0	43.2	46.1	46.3	0	201	0	0	0	57.8	49.2	0.0
2021 05/12 00:00	47.2	56.8	78.7	28.0	30.31	66.5	0.0	12.99	-133.8	0	43.8	46.1	46.7	0	201	0	0	0	57.3	48.8	77.3
2021 05/12 00:15	47.4	51.5	88.6	29.8	30.31	66.1	0.0	12.97	-134.0	0	43.0	46.1	46.2	0	201	0	0	0	56.8	48.6	77.3
2021 05/12 00:30	47.3	52.7	91.6	28.8	30.30	65.7	0.0	12.98	-134.4	0	43.4	46.1	46.2	0	201	0	0	0	56.1	48.4	77.3
2021 05/12 00:45	47.3	53.0	89.7	27.5	30.30	65.3	0.0	12.99	-134.6	0	43.1	46.1	45.6	0	201	0	0	0	56.1	48.4	77.3
2021 05/12 01:00	47.2	52.1	88.3	28.7	30.29	64.9	0.0	12.98	-134.9	0	43.4	46.1	44.3	0	201	0	0	0	55.1	47.9	77.4
2021 05/12 01:15	46.9	49.3	90.6	27.4	30.29	64.5	0.0	12.99	-135.1	0	43.6	46.1	43.9	0	201	0	0	0	54.6	47.7	77.4
2021 05/12 01:30	46.7	51.6	89.2	26.1	30.28	64.1	0.0	13.01	-135.2	0	43.2	46.1	42.7	0	201	0	0	0	54.0	47.6	77.4
2021 05/12 01:45	47.1	48.0	91.1	25.4	30.28	63.7	0.0	13.00	-135.4	0	43.6	46.1	41.3	0	201	0	0	0	53.8	47.5	77.4
2021 05/12 02:00	47.0	47.1	99.1	24.5	30.26	63.3	0.0	12.99	-135.6	0	43.6	45.2	41.4	0	201	0	0	0	53.2	47.1	77.3
2021 05/12 02:15	46.7	49.3	94.0	21.3	30.26	63.0	0.0	12.99	-135.7	0	43.7	45.2	40.4	0	201	0	0	0	52.7	46.9	77.3
2021 05/12 02:30	47.7	49.1	91.0	23.8	30.26	62.6	0.0	13.01	-135.9	0	43.7	45.2	39.6	0	201	0	0	0	52.2	46.8	77.3
2021 05/12 02:45	46.6	48.0	102.6	20.7	30.25	62.3	0.0	13.00	-136.0	0	43.6	45.2	39.5	0	201	0	0	0	51.9	46.5	77.3
2021 05/12 03:00	46.8	45.7	105.1	19.6	30.24	62.0	0.0	13.02	-136.1	0	43.5	45.2	38.6	0	201	0	0	0	51.4	46.4	77.4
2021 05/12 03:15	47.1	44.8	105.9	16.2	30.23	61.8	0.0	13.01	-136.2	0	44.0	45.2	37.9	0	201	0	0	0	51.0	46.0	77.4
2021 05/12 03:30	47.3	44.6	102.8	15.9	30.23	61.6	0.0	13.00	-136.2	0	43.9	45.2	37.8	0	201	0	0	0	50.7	45.9	77.4
2021 05/12 03:45	47.4	44.3	96.7	20.4	30.23	61.4	0.0	13.01	-136.4	0	43.8	46.1	37.5	0	201	0	0	0	50.7	45.8	77.4
2021 05/12 04:00	48.4	45.0	97.8	19.5	30.23	61.1	0.0	13.01	-136.4	0	43.8	46.1	36.2	0	201	0	0	0	50.5	45.6	77.3
2021 05/12 04:15	47.4	44.0	103.2	17.5	30.22	60.9	0.0	12.99	-136.5	0	43.8	46.1	35.9	0	201	0	0	0	50.1	45.3	77.3
2021 05/12 04:30	47.4	44.3	105.1	13.8	30.22	60.7	0.0	12.99	-136.5	0	43.8	46.1	36.2	0	201	0	0	0	49.7	45.2	77.3
2021 05/12 04:45	47.0	44.5	102.5	15.4	30.22	60.5	0.0	13.01	-136.6	0	43.7	46.1	35.7	0	201	0	0	0	49.5	45.0	77.3
2021 05/12 05:00	47.1	45.0	96.7	17.1	30.22	60.3	0.0	12.99	-136.6	0	43.6	46.1	35.3	0	201	0	0	0	49.4	44.9	77.3
2021 05/12 05:15	47.2	45.6	94.2	16.6	30.21	60.1	0.0	12.99	-136.6	0	43.7	46.1	35.4	0	201	0	0	0	48.8	44.5	77.3
2021 05/12 05:30	47.2	45.9	108.9	16.2	30.21	59.9	4.7	13.02	-136.6	0	43.6	46.1	35.2	0	201	0	0	0	48.4	44.3	77.3
2021 05/12 05:45	47.0	46.5	96.6	15.7	30.21	59.9	31.2	13.01	-136.7	0	43.6	46.1	35.7	0	201	0	0	0	48.2	44.3	77.3
2021 05/12 06:00	46.8	47.0	98.0	11.9	30.21	59.7	120.8	12.99	-136.7	0	43.6	46.1	34.8	0	201	0	0	0	47.8	44.1	77.4
2021 05/12 06:15	46.6	47.6	92.1	6.6	30.21	59.5	206.3	12.99	-136.7	0	43.3	47.0	34.9	0	201	0	0	0	47.6	43.9	77.4
2021 05/12 06:30	46.8	47.3	97.1	6.5	30.21	59.5	278.2	12.99	-136.7	0	43.8	47.9	35.1	0	201	0	0	0	47.4	43.8	77.4
2021 05/12 06:45	47.6	46.8	73.3	5.9	30.21	59.4	332.8	13.01	-136.7	0	44.0	47.9	35.8	0	201	0	0	0	47.0	43.7	77.4
2021 05/12 07:00	47.3	45.7	61.6	6.9	30.21	59.3	370.5	12.99	-136.9	0	43.8	48.8	37.5	0	201	0	0	0	46.9	43.5	77.4
2021 05/12 07:15	49.6	45.1	126.2	3.4	30.21	59.3	395.9	13.01	-136.9	0	43.6	50.6	38.9	0	201	0	0	0	47.0	43.5	77.4
2021 05/12 07:30	48.5	44.9	74.0	3.6	30.21	59.3	415.9	13.01	-136.9	0	43.2	51.5	40.7	0	201	0	0	0	47.0	43.5	77.4
2021 05/12 07:45	49.4	46.6	131.8	3.9	30.21	59.3	429.1	13.02	-136.8	0	43.7	51.5	45.0	0	201	0	0	0	47.2	43.5	77.4
2021 05/12 08:00	50.0	45.3	111.8	2.6	30.21	59.4	447.1	13.01	-136.9	0	43.4	52.4	50.4	0	201	0	0	0	47.9	43.7	77.6
2021 05/12 08:15	49.9	46.2	131.3	2.5	30.21	59.5	469.2	12.99	-136.7	0	43.3	52.4	52.1	0	201	0	0	0	48.9	43.8	77.6
2021 05/12 08:30	51.5	45.7	145.9	2.6	30.22	59.5	494.6	13.01	-136.7	0	43.1	55.1	53.2	0	201	0	0	0	49.5	44.1	77.6
2021 05/12 08:45	50.4	44.6	49.2	3.6	30.22	59.7	512.6	12.99	-136.7	0	43.2	56.0	54.0	0	201	0	0	0	50.4	44.4	77.6
2021 05/12 09:00	50.1	45.9	56.9	3.2	30.22	59.7	516.0	13.00	-136.7	0	43.2	55.1	55.1	0	201	0	0	0	51.2	45.1	77.6
2021 05/12 09:15	50.5	46.2	67.0	3.2	30.22	59.9	546.5	12.99	-136.6	0	42.7	55.1	56.1	0	201	0	0	0	52.0	45.8	77.6
2021 05/12 09:30	50.7	46.5	59.6	4.5	30.23	60.1	559.4	13.02	-136.6	0	42.3	57.8	57.6	0	201	0	0	0	53.0	46.6	77.6
2021 05/12 09:45	52.2	45.1	80.5	4.2	30.23	60.1	569.2	12.99	-136.6	0	43.1	56.9	58.2	0	201	0	0	0	53.4	47.0	77.6
2021 05/12 10:00	52.8	44.9	21.2	1.1	30.23	60.3	572.3	12.99	-136.6	0	42.6	57.8	58.5	0	201	0	0	0	54.7	47.8	77.6
2021 05/12 10:15	55.0	43.2	22.6	2.1	30.24	60.5	571.9	13.01	-136.5	0	43.4	57.8	58.7	0	201	0	0	0	55.9	49.0	77.6
2021 05/12 10:30	56.4	41.0	287.5	3.2	30.24	60.7	568.2	13.00	-136.4	0	43.2	57.8	58.2	0	201	0	0	0	57.3	49.8	77.6
2021 05/12 10:45	55.6	41.2	204.5	2.0	30.24	60.9	566.1	13.00	-136.4	0	42.5	58.7	58.9	0	201	0	0	0	58.6	50.9	77.6
2021 05/12 11:00	55.4	41.2	255.5	7.4	30.25	61.1	563.4	12.99	-136.2	0	42.2	58.7	60.1	0	201	0	0	0	60.3	51.9	77.7
2021 05/12 11:15	56.0	40.0	212.3	6.2	30.25	61.4	560.0	13.01	-136.2	0	43.3	60.5	61.3	0	201	0	0	0	62.1	52.8	77.7
2021 05/12 11:30	56.6	37.4	278.3	7.2	30.25	61.6	558.3	13.01	-136.1	0	42.9	61.4	61.9	0	201	0	0	0	64.1	53.7	77.7
2021 05/12 11:45	59.8	35.1	176.5	6.6	30.26	61.8	556.6	12.99	-136.1	0	42.9	62.3	62.3	0	201	0	0	0	65.0	54.0	77.7
2021 05/12 12:00	56.5	36.4	229.0	8.6	30.26	62.1	535.3	13.00	-136.0	0	43.2	61.4	62.0	0	201	0	0	0	66.5	54.8	77.6
2021 05/12 12:15	57.2	35.9	196.9	6.6	30.27	62.4	548.2	13.02	-135.9	0	43.2	61.4	63.1	0	201	0	0	0	67.7	55.8	77.6
2021 05/12 12:30	58.4	35.1	276.4	9.3	30.27	62.6	549.9	12.99	-135.9	0	41.6	62.3	63.8	0	201	0	0	0	68.9	56.5	77.6
2021 05/12 12:45	59.4	36.8	234.0	5.3	30.28	62.9	544.1	13.01	-135.7	0	43.1	63.2	64.1	0	201	0	0	0	69.8	57.0	77.6
2021 05/12 13:00	59.0	28.3	205.0	9.7	30.28	63.2	539.0	12.99	-135.6	0	43.0	64.1	66.0	0	201	0	0	0	70.5	57.7	77.6
2021 05/12 13:15	59.5	37.6	237.9	11.8	30.28	63.4	534.3	12.99	-135.5	0	42.5	64.1	65.7	0	201	0	0	0	71.4	58.0	77.6
2021 05/12 13:30	57.7	44.2	283.4	7.4	30.28	63.7	531.9	12.99	-135.4	0	42.7	64.1	64.8	0	201	0	0	0	72.1	58.4	77.6
2021 05/12 13:45	57.3	43.8	302.5	10.2	30.29	64.0	530.9	13.00	-135.2	0	41.5	64.1	66.4	0	201	0	0	0	72.5	58.4	77.6
2021 05/12 14:00	59.1	42.7	287.5	8.3	30.30	64.2	439.2	13.03	-135.1	0	41.0	65.0	64.8	0	201	0	0	0	72.8	58.7	77.8
2021 05/12 14:15	59.5	42.9	293.1	10.1	30.30	64.5	529.1	13.00	-135.0	0	41.4	64.1	66.4	0	201	0	0	0	73.4	58.7	77.8
2021 05/12 14:30	57.9	43.8	316.0	12.1	30.30	64.8	538.9	13.01	-134.9	0	41.8	64.1	66.6	0	201	0	0	0	73.6	58.8	77.8
2021 05/12 14:45	58.5	43.4	296.7	9.3	30.31	65.1	535.5	12.99	-134.7	0	42.0	63.2	66.0	0	201	0	0	0	74.1	58.7	77.8
2021 05/12 15:00	59.0	43.4	320.9	5.4	30.32	65.3	534.9	13.02	-134.5	0	41.0	63.2	66.0	0	201	0	0	0	74.5	58.7	77.7
2021 05/12 15:15	59.3	43.1	276.8	7.3	30.32	65.7	496.2	12.99	-134.4	0	41.7	63.2	66.3	0	201	0	0	0	74.8	58.7	77.7
2021 05/12 15:30	60.4	36.1	333.7	7.1	30.32	66.0	524.3	12.99	-134.1	0	41.4	63.2	66.1	0	201	0	0	0	75.4	58.6	77.7
2021 05/12 15:45	59.5	33.4	236.9	9.5	30.32	66.3	517.2	13.01	-133.9	0	41.3	62.3	67.3	0	201	0	0	0	75.4	58.6	77.7
2021 05/12 16:00	59.9	31.8	243.3	9.7	30.32	66.7	521.3	12.99	-133.6	0	41.2	63.2	67.7	0	201	0	0	0	75.6	58.5	77.8
2021 05/12 16:15	60.7	32.7	292.4	7.7	30.32	67.0	524.7	13.02	-133.4	0	40.4	63.2	68.3	0	201	0	0	0	75.5	58.6	77.8
2021 05/12 16:30	59.4	39.3	299.7	9.8	30.33	67.4	535.9	13.01	-133.0	0	41.0	63.2	67.0	0	201	0	0	0	75.9	58.6	77.8
2021 05/12 16:45	57.9	47.3	304.9	13.1	30.33	67.8	535.9	13.01	-132.8	0	39.8	61.4	67.9	0	201	0	0	0	77.0	58.6	77.8
2021 05/12 17:00	59.0	47.0	151.4	8.2	30.33	68.1	531.8	12.99	-132.4	0	40.8	61.4	65.9	0	201	0	0	0	77.4	58.7	77.8
2021 05/12 17:15	57.8	45.8	312.6	13.1	30.34	68.4	529.8	12.99	-132.1	0	39.0	61.4	67.2	0	201	0	0	0	77.9	58.7	77.8
2021 05/12 17:30	56.7	47.7	304.1	11.8	30.34	68.9	535.2	13.01	-131.6	0	40.7	61.4	67.5	0	201	0	0	0	77.6	58.7	77.8
2021 05/12 17:45	57.7	46.9	306.5	8.3	30.35	69.3	543.3	12.99	-131.1	0	-997.0	-997.0	68.3	0	201	0	0	0	77.3	58.6	77.8
2021 05/12 18:00	57.3	49.6	205.0	9.4	30.35	69.7	554.5	13.01	-130.6	0	-997.0	-997.0	68.3	0	201	0	0	0	77.3	58.6	77.7
2021 05/12 18:15	56.2	52.2	257.5	12.6	30.35	70.0	561.3	12.99	-130.1	0	39.9	60.5	67.6	0	201	0	0	0	77.2	58.6	77.7
2021 05/12 18:30	56.5	51.7	163.3	7.8	30.36	70.4	559.6	12.99	-129.5	0	40.1	59.6	68.6	0	201	0	0	0	77.1	58.5	77.7
2021 05/12 18:45	55.5	53.5	306.8	7.8	30.37	70.8	509.1	13.01	-129.0	0	39.9	58.7	64.6	0	201	0	0	0	76.7	58.4	77.7
2021 05/12 19:00	55.2	53.2	327.9	8.0	30.37	71.2	501.6	12.99	-128.5	0	40.8	56.9	60.9	0	201	0	0	0	76.0	58.3	77.6
2021 05/12 19:15	54.6	53.6	314.3	9.2	30.37	71.4	564.7	13.01	-127.9	0	40.3	56.0	59.2	0	201	0	0	0	75.3	58.2	77.6
2021 05/12 19:30	53.9	53.3	322.5	8.0	30.38	71.9	499.2	12.99	-127.4	0	40.8	55.1	58.8	0	201	0	0	0	74.5	57.8	77.6
2021 05/12 19:45	52.9	56.8	236.4	9.8	30.38	72.1	566.1	13.02	-126.9	0	40.8	54.2	57.3	0	201	0	0	0	74.0	57.7	77.6
2021 05/12 20:00	52.9	58.0	297.8	10.2	30.39	72.3	738.0	13.00	-126.4	0	41.1	52.4	57.1	0	201	0	0	0	73.2	57.4	77.6
2021 05/12 20:15	50.7	58.1	286.2	7.7	30.39	72.6	609.5	12.99	-126.1	0	40.5	50.6	56.1	0	201	0	0	0	72.3	57.0	77.6
2021 05/12 20:30	49.9	58.8	299.8	10.6	30.40	72.9	65.8	13.01	-125.6	0	40.9	49.7	54.4	0	201	0	0	0	71.4	56.8	77.6
2021 05/12 20:45	49.1	60.6	311.6	10.7	30.40	72.9	11.5	13.00	-125.3	0	40.6	48.8	55.3	0	201	0	0	0	70.5	56.5	77.6
2021 05/12 21:00	49.7	62.0	293.0	10.5	30.41	73.1	1.4	13.02	-125.1	0	41.0	47.9	54.4	0	201	0	0	0	69.6	56.0	77.7
2021 05/12 21:15	48.5	61.8	309.9	16.0	30.40	73.4	0.0	13.01	-125.0	0	40.6	47.0	53.9	0	201	0	0	0	68.9	55.7	77.7
2021 05/12 21:30	47.9	63.1	300.3	10.7	30.41	73.4	0.0	12.98	-125.0	0	40.6	47.0	54.2	0	201	0	0	0	68.1	55.4	77.7
2021 05/12 21:45	47.8	63.3	299.1	12.6	30.41	73.4	0.0	13.01	-125.0	0	40.0	47.0	53.7	0	201	0	0	0	67.6	55.2	77.7
2021 05/12 22:00	47.9	63.0	308.6	12.0	30.42	73.4	0.0	13.01	-125.1	0	40.6	47.0	53.1	0	201	0	0	0	66.8	54.8	77.7
2021 05/12 22:15	49.1	63.7	301.5	13.9	30.42	73.4	0.0	12.99	-125.2	0	39.9	47.0	52.9	0	201	0	0	0	66.0	54.6	77.7
2021 05/12 22:30	47.8	63.1	318.5	15.9	30.42	73.4	0.0	13.01	-125.5	0	39.0	47.0	51.7	0	201	0	0	0	65.3	54.2	77.7
2021 05/12 22:45	47.8	63.5	319.5	16.2	30.42	73.2	0.0	13.01	-125.7	0	38.8	46.1	51.9	0	201	0	0	0	64.5	53.9	77.7
2021 05/12 23:00	47.2	63.9	322.0	14.6	30.42	73.1	0.0	12.99	-126.1	0	40.8	46.1	51.2	0	201	0	0	0	63.8	53.5	77.6
2021 05/12 23:15	47.2	64.2	318.4	14.9	30.41	72.9	0.0	13.00	-126.4	0	39.7	45.2	50.5	0	201	0	0	0	63.0	53.3	77.6
2021 05/12 23:30	47.2	64.4	317.1	13.2	30.41	72.8	0.0	12.99	-126.8	0	40.1	46.1	51.1	0	201	0	0	0	62.4	53.0	77.6
2021 05/12 23:45	47.0	64.4	318.4	12.7	30.41	72.7	0.0	13.01	-127.3	0	40.0	46.1	51.3	0	201	0	0	0	62.2	52.9	77.6
2021 05/13 00:00	47.0	61.7	317.1	9.5	30.41	72.5	0.0	12.99	-127.7	0	40.6	46.1	49.6	0	201	0	0	0	61.4	52.7	77.8
2021 05/13 00:15	47.8	59.6	322.4	8.8	30.41	72.3	0.0	13.01	-128.2	0	40.6	46.1	45.9	0	201	0	0	0	60.9	52.3	77.8
2021 05/13 00:30	48.3	58.3	315.0	8.3	30.41	72.1	0.0	13.01	-128.5	0	39.9	46.1	44.2	0	201	0	0	0	60.0	52.0	77.8
2021 05/13 00:45	48.4	57.8	318.6	6.8	30.41	71.9	0.0	13.01	-128.9	0	40.8	46.1	43.1	0	201	0	0	0	59.3	51.7	77.8
2021 05/13 01:00	48.5	57.3	317.0	7.2	30.41	71.6	0.0	13.01	-129.3	0	40.8	46.1	41.7	0	201	0	0	0	58.6	51.4	77.6
2021 05/13 01:15	48.6	56.9	316.9	7.7	30.40	71.4	0.0	12.99	-129.6	0	40.8	47.0	40.9	0	201	0	0	0	57.8	51.1	77.6
2021 05/13 01:30	48.4	57.6	322.6	8.1	30.40	71.1	0.0	12.98	-130.0	0	39.8	47.0	39.4	0	201	0	0	0	57.0	50.9	77.6
2021 05/13 01:45	48.5	57.2	310.9	8.2	30.40	70.9	0.0	12.99	-130.4	0	40.5	47.0	39.0	0	201	0	0	0	56.7	50.7	77.6
2021 05/13 02:00	48.4	57.8	314.5	10.7	30.39	70.6	0.0	13.00	-130.6	0	40.8	47.0	38.2	0	201	0	0	0	56.1	50.4	77.6
2021 05/13 02:15	48.3	58.4	312.6	11.1	30.38	70.4	0.0	13.00	-131.0	0	41.0	46.1	38.4	0	201	0	0	0	55.7	50.2	77.6
2021 05/13 02:30	48.1	58.7	314.9	10.9	30.38	70.1	0.0	13.00	-131.2	0	40.3	46.1	37.7	0	201	0	0	0	55.2	49.8	77.6
2021 05/13 02:45	48.1	58.8	318.2	10.7	30.38	69.9	0.0	12.99	-131.4	0	40.6	46.1	37.5	0	201	0	0	0	54.9	49.6	77.6
2021 05/13 03:00	48.0	59.0	317.0	11.9	30.38	69.7	0.0	13.01	-131.7	0	40.5	46.1	36.7	0	201	0	0	0	54.9	49.6	77.6
2021 05/13 03:15	47.7	60.4	317.0	10.4	30.37	69.5	0.0	13.01	-132.1	0	40.4	46.1	36.7	0	201	0	0	0	54.3	49.2	77.6
2021 05/13 03:30	47.3	60.7	329.2	10.1	30.37	69.3	0.0	13.01	-132.3	0	40.5	45.2	35.9	0	201	0	0	0	54.2	48.8	77.6
2021 05/13 03:45	47.3	60.6	340.9	9.7	30.37	69.0	0.0	12.99	-132.5	0	39.2	45.2	35.8	0	201	0	0	0	54.2	48.8	77.6
2021 05/13 04:00	47.5	59.0	346.2	7.5	30.37	68.8	0.0	13.03	-132.7	0	40.5	45.2	36.8	0	201	0	0	0	53.0	48.5	77.7
2021 05/13 04:15	47.7	57.0	348.7	8.3	30.37	68.4	0.0	13.01	-132.9	0	40.1	46.1	35.9	0	201	0	0	0	52.8	48.3	77.7
2021 05/13 04:30	47.7	56.7	334.6	9.1	30.36	68.2	0.0	13.01	-133.2	0	40.4	45.2	34.9	0	201	0	0	0	52.2	47.9	77.7
2021 05/13 04:45	47.4	55.8	334.8	8.0	30.36	68.0	0.0	12.99	-133.4	0	40.3	45.2	34.8	0	201	0	0	0	51.7	47.8	77.7
2021 05/13 05:00	47.9	47.8	337.6	8.2	30.35	67.8	0.0	13.00	-133.5	0	40.7	45.2	34.4	0	201	0	0	0	51.3	47.5	77.7
2021 05/13 05:15	48.3	41.8	351.8	7.7	30.36	67.6	0.7	13.01	-133.8	0	40.5	46.1	34.3	0	201	0	0	0	50.9	47.2	77.7
2021 05/13 05:30	49.3	38.1	349.7	6.1	30.35	67.3	6.1	12.99	-133.9	0	40.5	45.2	33.6	0	201	0	0	0	50.5	46.9	77.7
2021 05/13 05:45	48.8	35.1	20.9	2.9	30.35	67.0	41.4	13.02	-134.0	0	40.3	44.3	33.3	0	201	0	0	0	50.5	46.9	77.7
2021 05/13 06:00	48.9	40.4	81.9	7.9	30.34	66.8	135.0	12.99	-134.1	0	40.6	45.2	34.0	0	201	0	0	0	49.7	46.6	77.7
2021 05/13 06:15	48.6	42.5	86.9	8.2	30.34	66.5	218.8	12.99	-134.4	0	40.0	47.9	33.6	0	201	0	0	0	49.4	46.4	77.7
2021 05/13 06:30	48.4	46.2	98.9	11.9	30.34	66.3	278.4	13.01	-134.5	0	39.9	49.7	34.1	0	201	0	0	0	49.0	46.2	77.7
2021 05/13 06:45	49.3	49.3	106.3	12.6	30.34	66.1	332.7	13.01	-134.6	0	40.6	48.8	34.2	0	201	0	0	0	48.9	46.1	77.7
2021 05/13 07:00	48.2	50.7	107.5	11.9	30.35	65.9	371.4	12.99	-134.7	0	40.2	49.7	36.0	0	201	0	0	0	48.9	46.0	77.7
2021 05/13 07:15	48.1	51.8	115.0	12.2	30.35	65.7	374.1	12.99	-134.9	0	40.2	50.6	37.3	0	201	0	0	0	48.7	45.8	77.7
2021 05/13 07:30	47.7	53.1	118.9	9.8	30.35	65.5	394.4	12.99	-134.9	0	39.8	51.5	39.1	0	201	0	0	0	48.9	45.8	77.7
2021 05/13 07:45	48.0	54.2	108.4	9.5	30.34	65.5	425.0	13.01	-135.0	0	39.5	52.4	41.3	0	201	0	0	0	49.0	45.8	77.7
2021 05/13 08:00	48.0	52.7	103.0	12.1	30.35	65.3	447.4	13.01	-135.0	0	40.1	53.3	44.0	0	201	0	0	0	49.3	45.9	77.8
2021 05/13 08:15	48.6	53.7	94.0	11.2	30.35	65.3	473.8	12.99	-135.0	0	39.6	54.2	50.7	0	201	0	0	0	50.2	46.0	77.8
2021 05/13 08:30	48.4	51.5	95.8	14.4	30.35	65.1	497.2	13.01	-135.0	0	39.5	55.1	53.3	0	201	0	0	0	51.3	46.2	77.8
2021 05/13 08:45	48.6	53.5	107.7	12.0	30.35	65.0	514.2	12.99	-135.1	0	39.5	55.1	54.3	0	201	0	0	0	51.4	46.5	77.8
2021 05/13 09:00	49.1	51.7	92.3	12.8	30.35	65.0	528.8	13.01	-135.1	0	40.5	54.2	54.6	0	201	0	0	0	52.0	46.8	77.8
2021 05/13 09:15	48.8	52.5	96.6	13.9	30.35	65.0	545.0	13.01	-135.1	0	38.8	54.2	56.1	0	201	0	0	0	52.8	47.5	77.8
2021 05/13 09:30	49.6	51.9	94.0	14.5	30.35	65.1	552.5	12.99	-135.1	0	39.1	56.0	56.4	0	201	0	0	0	53.4	48.2	77.8
2021 05/13 09:45	50.0	51.3	97.2	11.8	30.35	65.0	563.4	12.98	-135.1	0	40.3	55.1	57.0	0	201	0	0	0	54.3	48.8	77.8
2021 05/13 10:00	50.8	49.9	107.8	11.3	30.35	65.0	573.2	12.99	-135.0	0	40.1	55.1	57.0	0	201	0	0	0	54.9	49.3	78.0
2021 05/13 10:15	51.3	47.8	79.4	9.1	30.35	65.2	572.2	13.01	-135.0	0	40.0	56.0	58.5	0	201	0	0	0	56.4	50.6	78.0
2021 05/13 10:30	52.9	44.5	97.1	7.8	30.35	65.1	568.1	13.01	-135.0	0	40.1	56.9	58.9	0	201	0	0	0	57.6	51.9	78.0
2021 05/13 10:45	52.7	43.6	104.0	5.4	30.35	65.2	564.4	12.99	-134.9	0	39.7	56.9	57.7	0	201	0	0	0	58.3	52.3	78.0
2021 05/13 11:00	53.0	41.8	20.6	3.9	30.36	65.3	560.0	12.99	-134.9	0	39.8	57.8	60.0	0	201	0	0	0	59.6	53.4	78.1
2021 05/13 11:15	55.6	39.3	161.4	2.9	30.36	65.4	552.5	12.99	-134.7	0	39.3	58.7	61.5	0	201	0	0	0	61.3	54.3	78.1
2021 05/13 11:30	54.3	36.8	0.9	5.1	30.36	65.7	564.4	12.99	-134.8	0	39.9	61.4	61.0	0	201	0	0	0	62.8	55.4	78.1
2021 05/13 11:45	56.1	33.9	340.0	2.7	30.37	65.8	554.5	12.99	-134.6	0	39.3	61.4	62.4	0	201	0	0	0	64.2	56.0	78.1
2021 05/13 12:00	56.1	34.9	40.0	2.2	30.37	65.9	557.6	13.01	-134.5	0	39.6	61.4	63.1	0	201	0	0	0	65.9	56.6	78.0
2021 05/13 12:15	58.4	32.1	118.6	3.8	30.36	66.1	546.0	12.99	-134.5	0	39.5	62.3	63.0	0	201	0	0	0	67.6	57.0	78.0
2021 05/13 12:30	56.7	31.9	116.9	4.4	30.36	66.2	541.3	13.01	-134.4	0	39.8	61.4	64.6	0	201	0	0	0	69.0	57.5	78.0
2021 05/13 12:45	58.8	29.4	266.1	2.0	30.36	66.4	536.5	13.01	-134.3	0	39.9	62.3	63.6	0	201	0	0	0	69.6	57.6	78.0
2021 05/13 13:00	59.3	26.7	234.5	3.6	30.36	66.6	530.1	12.99	-134.1	0	39.3	65.0	64.3	0	201	0	0	0	70.5	58.3	77.9
2021 05/13 13:15	58.0	22.6	35.0	2.2	30.36	66.8	523.3	12.99	-134.0	0	39.2	65.0	65.6	0	201	0	0	0	71.2	59.0	77.9
2021 05/13 13:30	57.7	23.9	29.3	3.1	30.36	66.9	515.9	12.99	-133.9	0	39.1	65.9	66.6	0	201	0	0	0	71.8	59.3	77.9
2021 05/13 13:45	58.3	24.8	307.2	4.7	30.36	67.2	512.5	12.99	-133.8	0	39.1	66.8	69.0	0	201	0	0	0	72.2	59.6	77.9
2021 05/13 14:00	60.7	24.1	283.9	3.9	30.36	67.4	513.5	13.01	-133.6	0	38.5	65.9	67.9	0	201	0	0	0	72.8	59.6	77.8
2021 05/13 14:15	62.1	25.9	285.8	6.4	30.36	67.6	513.1	13.01	-133.5	0	38.7	65.9	68.1	0	201	0	0	0	73.1	59.7	77.8
2021 05/13 14:30	61.8	24.8	273.5	3.5	30.36	67.8	512.8	12.99	-133.4	0	37.9	65.9	68.8	0	201	0	0	0	73.6	59.5	77.8
2021 05/13 14:45	61.2	23.5	8.7	4.1	30.36	68.0	512.1	13.02	-133.3	0	38.7	65.9	66.5	0	201	0	0	0	73.8	59.5	77.8
2021 05/13 15:00	59.4	24.4	350.7	6.9	30.36	68.2	511.1	13.01	-133.0	0	38.4	65.9	69.7	0	201	0	0	0	74.0	59.3	77.9
2021 05/13 15:15	59.9	29.8	319.7	4.4	30.36	68.4	512.1	12.99	-132.9	0	38.4	65.9	67.7	0	201	0	0	0	74.4	59.1	77.9
2021 05/13 15:30	59.9	36.1	305.8	14.9	30.36	68.7	513.1	12.99	-132.7	0	38.1	65.9	68.4	0	201	0	0	0	74.6	59.1	77.9
2021 05/13 15:45	59.3	38.7	314.9	13.7	30.36	69.0	514.8	13.01	-132.4	0	38.5	64.1	68.7	0	201	0	0	0	75.0	58.8	77.9
2021 05/13 16:00	59.4	40.4	331.7	10.4	30.36	69.3	517.6	12.99	-132.2	0	34.8	65.0	68.2	0	201	0	0	0	75.4	58.8	77.5
2021 05/13 16:15	59.3	40.4	315.2	9.9	30.36	69.5	522.6	12.99	-131.8	0	37.2	65.0	69.2	0	201	0	0	0	75.9	58.8	77.5
2021 05/13 16:30	60.6	44.2	274.5	8.5	30.36	69.9	533.2	13.02	-131.4	0	36.3	65.0	69.7	0	201	0	0	0	76.8	58.8	77.5
2021 05/13 16:45	61.0	43.3	298.1	12.2	30.36	70.1	537.6	13.01	-131.1	0	36.5	64.1	67.4	0	201	0	0	0	77.1	59.0	77.5
2021 05/13 17:00	59.9	48.0	286.3	9.4	30.36	70.6	529.1	13.01	-130.6	0	37.7	63.2	69.2	0	201	0	0	0	77.5	59.1	77.9
2021 05/13 17:15	58.3	50.8	327.6	17.5	30.37	70.9	523.7	13.00	-130.1	0	35.8	63.2	67.7	0	201	0	0	0	78.0	59.2	77.9
2021 05/13 17:30	58.6	52.6	305.2	14.2	30.37	71.2	533.2	12.99	-129.6	0	37.5	63.2	69.1	0	201	0	0	0	78.1	59.2	77.9
2021 05/13 17:45	58.6	54.7	301.4	8.2	30.37	71.6	519.9	13.01	-129.0	0	32.5	62.3	67.9	0	201	0	0	0	78.1	59.3	77.9
2021 05/13 18:00	58.6	57.7	314.7	10.6	30.38	72.0	510.8	12.99	-128.4	0	36.8	61.4	67.4	0	201	0	0	0	78.0	59.4	77.9
2021 05/13 18:15	56.8	57.6	327.9	14.2	30.38	72.3	494.5	12.99	-127.8	0	35.6	60.5	65.8	0	201	0	0	0	77.6	59.4	77.9
2021 05/13 18:30	56.0	60.0	310.7	12.6	30.38	72.7	438.2	12.99	-127.1	0	36.9	59.6	64.8	0	201	0	0	0	77.3	59.4	77.9
2021 05/13 18:45	55.0	61.5	318.8	16.2	30.38	73.0	349.0	13.02	-126.4	0	34.9	57.8	62.3	0	201	0	0	0	77.1	59.4	77.9
2021 05/13 19:00	54.1	63.1	323.2	16.1	30.38	73.4	308.3	13.02	-125.8	0	37.7	56.0	61.2	0	201	0	0	0	76.2	59.3	77.9
2021 05/13 19:15	53.4	64.2	320.5	18.0	30.39	73.6	256.7	13.01	-125.2	0	37.4	55.1	59.7	0	201	0	0	0	75.4	59.1	77.9
2021 05/13 19:30	52.8	65.3	329.4	16.8	30.39	73.8	204.8	13.03	-124.7	0	35.9	54.2	58.7	0	201	0	0	0	74.6	58.8	77.9
2021 05/13 19:45	52.4	66.3	329.0	16.4	30.39	74.0	141.8	12.99	-124.4	0	34.9	53.3	57.6	0	201	0	0	0	73.8	58.5	77.9
2021 05/13 20:00	51.9	66.9	337.2	17.1	30.40	74.2	83.4	13.00	-124.1	0	36.4	52.4	56.5	0	201	0	0	0	72.9	58.3	77.8
2021 05/13 20:15	51.7	67.8	338.5	17.4	30.40	74.2	36.6	13.01	-124.1	0	36.0	51.5	55.3	0	201	0	0	0	72.1	57.9	77.8
2021 05/13 20:30	51.5	67.2	335.3	15.7	30.40	74.4	11.2	12.99	-124.0	0	35.2	51.5	54.4	0	201	0	0	0	71.7	57.7	77.8
2021 05/13 20:45	51.0	67.3	332.3	16.2	30.40	74.4	2.0	12.99	-124.1	0	37.5	50.6	51.7	0	201	0	0	0	70.9	57.4	77.8
2021 05/13 21:00	51.1	67.0	328.6	17.2	30.40	74.4	0.0	13.01	-124.2	0	34.2	50.6	53.1	0	201	0	0	0	70.1	57.0	77.9
2021 05/13 21:15	50.7	67.4	327.5	12.9	30.41	74.4	0.0	13.03	-124.5	0	35.1	49.7	51.2	0	201	0	0	0	69.3	56.7	77.9
2021 05/13 21:30	50.2	67.4	331.4	10.8	30.41	74.2	0.0	13.02	-124.7	0	37.6	49.7	50.4	0	201	0	0	0	68.6	56.4	77.9
2021 05/13 21:45	50.2	65.8	327.0	9.7	30.41	74.2	0.0	12.99	-125.1	0	36.4	49.7	48.8	0	201	0	0	0	67.8	56.0	77.9
2021 05/13 22:00	50.2	65.8	357.0	4.0	30.41	74.0	0.0	13.03	-125.5	0	36.8	49.7	48.1	0	201	0	0	0	67.0	55.7	78.0
2021 05/13 22:15	50.5	63.4	357.9	3.4	30.41	74.0	0.0	13.01	-125.8	0	36.6	49.7	47.2	0	201	0	0	0	66.1	55.4	78.0
2021 05/13 22:30	52.2	57.0	74.5	6.0	30.40	73.8	0.0	13.00	-126.2	0	36.7	48.8	46.5	0	201	0	0	0	65.7	55.2	78.0
2021 05/13 22:45	52.2	57.3	97.0	5.2	30.40	73.6	0.0	13.00	-126.6	0	38.0	48.8	45.7	0	201	0	0	0	64.9	54.8	78.0
2021 05/13 23:00	51.8	58.0	107.9	4.2	30.40	73.6	0.0	13.00	-126.9	0	37.8	48.8	45.2	0	201	0	0	0	64.2	54.6	77.8
2021 05/13 23:15	51.8	58.3	113.4	6.7	30.39	73.4	0.0	12.99	-127.3	0	36.1	48.8	44.4	0	201	0	0	0	63.6	54.1	77.8
2021 05/13 23:30	51.8	58.8	123.5	6.9	30.39	73.1	0.0	13.00	-127.7	0	36.4	48.8	43.9	0	201	0	0	0	62.9	53.9	77.8
2021 05/13 23:45	51.7	58.7	110.2	5.9	30.39	72.9	0.0	13.02	-128.0	0	37.0	48.8	43.6	0	201	0	0	0	62.3	53.5	77.8
2021 05/14 00:00	51.6	57.9	89.7	7.4	30.39	72.7	0.0	13.00	-128.3	0	35.5	48.8	42.9	0	201	0	0	0	61.7	53.3	77.8
2021 05/14 00:15	51.6	58.7	56.3	6.9	30.38	72.6	0.0	12.99	-128.6	0	35.5	48.8	42.5	0	201	0	0	0	61.0	53.1	77.8
2021 05/14 00:30	51.6	55.9	47.5	7.4	30.38	72.3	0.0	13.00	-129.0	0	35.8	48.8	42.7	0	201	0	0	0	60.6	53.0	77.8
2021 05/14 00:45	51.6	56.4	60.3	7.2	30.37	72.2	0.0	13.02	-129.3	0	35.9	48.8	42.6	0	201	0	0	0	60.0	52.7	77.8
2021 05/14 01:00	51.6	55.0	66.9	7.5	30.37	72.0	0.0	13.03	-129.6	0	36.6	48.8	42.5	0	201	0	0	0	59.4	52.4	77.8
2021 05/14 01:15	51.5	54.4	71.4	8.5	30.37	71.9	0.0	13.02	-130.1	0	35.8	48.8	42.1	0	201	0	0	0	58.8	52.2	77.8
2021 05/14 01:30	51.5	54.2	69.1	8.8	30.36	71.6	0.0	12.99	-130.2	0	36.8	48.8	41.8	0	201	0	0	0	58.3	52.0	77.8
2021 05/14 01:45	51.2	54.5	70.9	8.6	30.36	71.4	0.0	12.99	-130.5	0	37.6	47.9	41.7	0	201	0	0	0	57.8	51.6	77.8
2021 05/14 02:00	51.0	54.2	60.3	8.1	30.36	71.2	0.0	13.00	-130.7	0	37.1	47.9	41.8	0	201	0	0	0	57.3	51.5	77.8
2021 05/14 02:15	51.2	52.5	61.4	8.5	30.35	71.0	0.0	12.99	-131.0	0	36.0	47.9	41.4	0	201	0	0	0	56.9	51.3	77.8
2021 05/14 02:30	51.1	52.5	67.1	8.9	30.35	70.8	0.0	13.01	-131.2	0	36.8	47.9	41.1	0	201	0	0	0	56.5	51.1	77.8
2021 05/14 02:45	51.2	51.7	73.4	10.4	30.35	70.6	0.0	13.01	-131.4	0	35.3	47.9	40.7	0	201	0	0	0	56.5	51.1	77.8
2021 05/14 03:00	51.0	51.4	73.0	10.7	30.34	70.4	0.0	13.01	-131.7	0	37.0	47.0	40.9	0	201	0	0	0	55.9	50.9	77.8
2021 05/14 03:15	50.6	52.0	70.4	8.9	30.34	70.1	0.0	12.99	-131.8	0	36.4	47.0	41.1	0	201	0	0	0	55.7	50.7	77.8
2021 05/14 03:30	51.8	53.0	78.3	9.5	30.34	69.9	0.0	13.03	-132.1	0	36.9	47.0	40.7	0	201	0	0	0	55.5	50.4	77.8
2021 05/14 03:45	50.7	52.6	77.9	9.3	30.33	69.7	0.0	12.99	-132.3	0	37.7	46.1	40.3	0	201	0	0	0	55.0	50.3	77.8
2021 05/14 04:00	50.5	53.2	70.9	7.8	30.33	69.5	0.0	13.02	-132.5	0	37.5	47.0	40.4	0	201	0	0	0	55.0	50.1	77.8
2021 05/14 04:15	50.1	53.0	52.8	7.5	30.32	69.3	0.0	13.02	-132.7	0	37.4	46.1	40.5	0	201	0	0	0	54.7	50.0	77.8
2021 05/14 04:30	50.1	52.6	53.3	8.5	30.31	69.1	0.0	13.01	-132.9	0	37.7	46.1	40.0	0	201	0	0	0	54.5	49.7	77.8
2021 05/14 04:45	50.1	52.4	59.6	8.7	30.31	68.9	0.0	13.02	-133.2	0	37.4	47.0	40.3	0	201	0	0	0	54.3	49.7	77.8
2021 05/14 05:00	50.0	53.5	55.1	8.3	30.30	68.7	0.0	12.99	-133.3	0	37.9	47.0	40.4	0	201	0	0	0	54.1	49.5	77.8
2021 05/14 05:15	49.7	54.1	57.3	10.6	30.30	68.4	0.0	12.99	-133.4	0	37.7	47.0	40.3	0	201	0	0	0	53.7	49.3	77.8
2021 05/14 05:30	49.4	54.0	50.0	9.9	30.30	68.3	2.7	13.01	-133.5	0	37.5	47.9	40.0	0	201	0	0	0	53.4	49.2	77.8
2021 05/14 05:45	49.4	53.4	59.8	11.1	30.29	68.1	14.2	13.00	-133.6	0	37.1	47.0	40.4	0	201	0	0	0	53.2	49.2	77.8
2021 05/14 06:00	49.5	55.1	62.8	11.4	30.29	67.9	44.1	13.01	-133.8	0	36.5	47.0	40.3	0	201	0	0	0	53.1	48.9	77.9
2021 05/14 06:15	48.6	55.6	55.6	12.8	30.29	67.8	86.8	13.01	-133.9	0	37.1	47.0	40.5	0	201	0	0	0	52.9	48.8	77.9
2021 05/14 06:30	48.6	54.7	34.6	10.5	30.29	67.6	131.6	13.01	-134.0	0	37.2	47.9	41.1	0	201	0	0	0	52.8	48.7	77.9
2021 05/14 06:45	49.3	51.7	69.2	14.0	30.28	67.4	181.1	13.01	-134.1	0	37.5	48.8	41.5	0	201	0	0	0	52.7	48.6	77.9
2021 05/14 07:00	49.1	50.9	57.7	13.4	30.29	67.3	232.0	13.01	-134.3	0	36.9	48.8	42.9	0	201	0	0	0	52.4	48.6	77.9
2021 05/14 07:15	49.0	50.9	51.8	11.9	30.29	67.0	319.8	13.03	-134.4	0	36.1	49.7	43.0	0	201	0	0	0	52.3	48.6	77.9
2021 05/14 07:30	48.8	52.0	53.1	10.8	30.29	66.9	387.0	12.99	-134.4	0	36.8	51.5	44.1	0	201	0	0	0	52.4	48.5	77.9
2021 05/14 07:45	48.8	53.0	57.6	8.5	30.29	66.7	431.7	13.01	-134.5	0	36.9	53.3	45.8	0	201	0	0	0	52.4	48.5	77.9
2021 05/14 08:00	48.6	55.5	72.5	9.7	30.29	66.6	452.8	12.99	-134.5	0	36.1	54.2	47.4	0	201	0	0	0	53.0	48.6	78.0
2021 05/14 08:15	49.3	54.7	71.3	12.1	30.29	66.5	465.3	13.01	-134.6	0	36.4	54.2	51.6	0	201	0	0	0	54.0	48.8	78.0
2021 05/14 08:30	49.3	57.8	61.8	12.7	30.28	66.5	469.4	12.99	-134.6	0	36.5	55.1	50.6	0	201	0	0	0	54.1	49.0	78.0
2021 05/14 08:45	49.4	60.6	66.4	12.9	30.28	66.4	520.6	13.02	-134.6	0	35.1	56.0	53.4	0	201	0	0	0	54.3	49.2	78.0
2021 05/14 09:00	49.7	57.7	64.3	13.1	30.28	66.4	517.6	12.99	-134.6	0	35.4	56.0	56.1	0	201	0	0	0	55.0	49.5	78.0
2021 05/14 09:15	51.1	58.0	76.9	14.0	30.28	66.4	547.7	12.99	-134.6	0	35.5	56.0	57.3	0	201	0	0	0	55.8	50.2	78.0
2021 05/14 09:30	50.5	52.3	65.2	14.6	30.28	66.3	579.3	13.01	-134.6	0	36.2	56.0	57.6	0	201	0	0	0	56.4	50.4	78.0
2021 05/14 09:45	51.0	48.1	58.7	11.8	30.28	66.4	509.1	12.99	-134.6	0	35.9	56.0	58.4	0	201	0	0	0	57.3	51.2	78.0
2021 05/14 10:00	51.2	47.4	45.3	12.0	30.28	66.4	500.9	13.00	-134.6	0	35.2	56.0	59.2	0	201	0	0	0	58.0	51.7	78.0
2021 05/14 10:15	51.8	40.7	50.0	14.9	30.28	66.5	529.4	12.99	-134.5	0	36.2	57.8	60.1	0	201	0	0	0	59.0	52.5	78.0
2021 05/14 10:30	52.2	43.8	42.1	12.9	30.28	66.5	508.7	13.00	-134.5	0	35.6	58.7	61.2	0	201	0	0	0	60.1	53.2	78.0
2021 05/14 10:45	53.0	43.6	48.5	3.9	30.29	66.6	469.7	13.02	-134.4	0	35.3	58.7	61.8	0	201	0	0	0	61.4	53.9	78.0
2021 05/14 11:00	52.5	44.0	18.9	11.8	30.29	66.7	465.7	13.00	-134.4	0	35.3	56.9	58.7	0	201	0	0	0	62.5	54.5	78.0
2021 05/14 11:15	53.2	44.3	39.8	7.9	30.30	66.8	518.6	12.99	-134.3	0	36.7	59.6	62.0	0	201	0	0	0	63.3	54.9	78.0
2021 05/14 11:30	53.4	46.0	78.3	4.6	30.30	66.9	490.8	13.00	-134.3	0	35.7	58.7	61.4	0	201	0	0	0	64.6	55.6	78.0
2021 05/14 11:45	53.5	42.1	6.4	5.2	30.30	67.0	523.3	13.00	-134.1	0	36.4	60.5	62.3	0	201	0	0	0	65.1	55.9	78.0
2021 05/14 12:00	54.3	41.7	93.4	3.1	30.30	67.2	498.6	13.02	-134.0	0	36.0	60.5	61.9	0	201	0	0	0	66.1	56.5	78.0
2021 05/14 12:15	55.2	42.3	353.0	6.0	30.30	67.4	549.4	13.02	-133.9	0	36.2	61.4	62.8	0	201	0	0	0	67.3	56.8	78.0
2021 05/14 12:30	55.0	40.5	69.3	3.6	30.30	67.5	548.1	13.00	-133.9	0	36.7	60.5	64.1	0	201	0	0	0	68.5	57.4	78.0
2021 05/14 12:45	55.1	40.8	22.7	16.6	30.29	67.6	541.6	12.99	-133.8	0	36.2	61.4	65.2	0	201	0	0	0	69.8	58.0	78.0
2021 05/14 13:00	56.5	39.5	12.5	12.1	30.29	67.8	537.9	12.99	-133.6	0	36.4	60.5	64.8	0	201	0	0	0	70.6	58.7	77.9
2021 05/14 13:15	55.5	36.4	343.2	12.0	30.29	67.9	554.2	12.99	-133.6	0	35.9	62.3	65.5	0	201	0	0	0	71.8	59.7	77.9
2021 05/14 13:30	55.9	33.6	347.2	8.9	30.29	68.0	566.1	12.99	-133.5	0	36.2	64.1	66.9	0	201	0	0	0	72.7	60.5	77.9
2021 05/14 13:45	57.4	34.0	33.3	3.1	30.29	68.2	452.4	13.01	-133.4	0	36.4	61.4	65.5	0	201	0	0	0	72.8	61.1	77.9
2021 05/14 14:00	56.8	38.1	357.6	9.8	30.28	68.3	532.1	12.99	-133.3	0	36.0	62.3	66.1	0	201	0	0	0	73.7	60.7	77.9
2021 05/14 14:15	56.8	36.1	325.9	7.3	30.28	68.4	480.6	12.99	-133.3	0	35.6	63.2	66.6	0	201	0	0	0	74.4	60.7	77.9
2021 05/14 14:30	56.1	40.0	351.1	7.3	30.29	68.7	410.0	12.99	-133.0	0	33.2	61.4	65.4	0	201	0	0	0	74.6	61.0	77.9
2021 05/14 14:45	54.0	41.4	43.2	14.9	30.29	68.9	334.1	12.99	-132.9	0	34.0	57.8	62.8	0	201	0	0	0	74.3	60.4	77.9
2021 05/14 15:00	52.4	43.8	81.1	18.7	30.29	69.0	259.1	13.01	-132.8	0	34.3	55.1	61.3	0	201	0	0	0	73.1	60.0	77.8
2021 05/14 15:15	52.7	43.1	102.2	15.3	30.30	69.1	237.4	13.02	-132.7	0	34.8	53.3	60.1	0	201	0	0	0	72.0	59.4	77.8
2021 05/14 15:30	49.6	55.6	110.8	24.6	30.31	69.3	202.5	13.02	-132.5	0	33.4	48.8	56.4	0	201	0	0	0	70.8	58.7	77.8
2021 05/14 15:45	48.5	57.2	119.7	29.5	30.31	69.3	204.2	12.99	-132.5	0	36.0	46.1	56.1	0	201	0	0	0	70.3	58.5	77.8
2021 05/14 16:00	48.0	59.4	67.1	18.2	30.32	69.4	186.9	13.02	-132.4	0	35.3	47.0	54.3	0	201	0	0	0	69.2	58.0	78.0
2021 05/14 16:15	48.0	59.0	106.2	13.4	30.31	69.5	179.1	13.01	-132.4	0	34.7	47.0	53.9	0	202	0	0	0	68.3	57.5	78.0
2021 05/14 16:30	50.2	50.7	163.3	9.9	30.30	69.5	201.1	13.01	-132.4	0	34.5	49.7	54.7	0	202	0	0	0	67.5	57.0	78.0
2021 05/14 16:45	50.2	46.2	133.0	22.7	30.29	69.5	253.0	12.99	-132.4	0	35.8	50.6	55.3	0	202	0	0	0	66.8	56.6	78.0
2021 05/14 17:00	50.7	45.5	143.1	17.2	30.30	69.5	324.9	12.97	-132.5	0	35.1	50.6	54.4	0	202	0	0	0	66.3	56.1	77.8
2021 05/14 17:15	48.5	53.3	359.7	34.0	30.30	69.3	331.7	13.00	-132.5	0	34.1	49.7	54.4	0	202	0	0	0	66.1	55.9	77.8
2021 05/14 17:30	49.5	48.4	23.2	24.7	30.30	69.3	238.1	12.99	-132.7	0	34.0	48.8	54.8	0	203	0	0	0	65.7	55.8	77.8
2021 05/14 17:45	49.4	51.4	16.1	7.8	30.31	69.3	239.8	13.03	-132.8	0	34.0	47.9	51.3	0	204	0	0	0	65.6	55.7	77.8
2021 05/14 18:00	49.5	52.3	30.2	3.6	30.31	69.1	349.7	13.02	-132.9	0	32.9	47.9	48.1	0	204	0	0	0	65.3	55.5	78.0
2021 05/14 18:15	49.6	53.0	70.7	4.6	30.29	69.1	435.1	13.03	-133.0	0	33.2	48.8	49.8	0	205	0	0	0	65.0	55.2	78.0
2021 05/14 18:30	49.9	54.9	137.6	5.1	30.28	69.0	537.6	13.02	-133.2	0	34.9	52.4	53.9	0	205	0	0	0	64.7	55.0	78.0
2021 05/14 18:45	51.8	42.9	12.5	13.3	30.28	68.9	504.0	12.99	-133.2	0	33.2	56.0	53.8	0	205	0	0	0	65.7	54.9	78.0
2021 05/14 19:00	51.6	46.2	354.2	9.5	30.28	68.9	498.2	13.02	-133.3	0	34.6	54.2	51.3	0	205	0	0	0	68.6	54.8	78.0
2021 05/14 19:15	51.8	51.0	340.9	10.1	30.28	68.8	554.5	13.03	-133.3	0	35.5	53.3	48.9	0	205	0	0	0	72.1	54.8	78.0
2021 05/14 19:30	51.5	52.2	339.6	12.6	30.27	68.8	522.6	13.01	-133.4	0	34.6	52.4	47.8	0	205	0	0	0	75.3	54.6	78.0
2021 05/14 19:45	51.6	52.3	342.9	14.0	30.28	68.8	559.3	12.99	-133.4	0	33.3	53.3	47.5	0	205	0	0	0	76.4	54.6	78.0
2021 05/14 20:00	51.1	55.8	350.0	14.7	30.27	68.8	754.0	13.01	-133.3	0	34.8	51.5	47.0	0	205	0	0	0	78.2	54.3	78.0
2021 05/14 20:15	51.2	53.0	337.9	17.1	30.27	68.8	588.8	13.01	-133.3	0	33.8	50.6	46.3	0	205	0	0	0	79.2	54.1	78.0
2021 05/14 20:30	51.1	50.5	347.2	19.6	30.27	68.8	62.4	12.99	-133.3	0	34.5	48.8	46.1	0	205	0	0	0	79.1	53.9	78.0
2021 05/14 20:45	51.0	50.2	346.5	17.9	30.27	68.8	13.6	12.99	-133.3	0	35.8	48.8	46.0	0	205	0	0	0	78.2	53.7	78.0
2021 05/14 21:00	51.5	53.0	345.5	20.7	30.28	68.8	2.0	13.01	-133.3	0	33.7	48.8	45.1	0	205	0	0	0	77.3	53.3	78.0
2021 05/14 21:15	49.9	52.5	348.3	20.1	30.28	68.8	0.0	12.99	-133.3	0	33.8	48.8	46.0	0	205	0	0	0	77.0	53.1	78.0
2021 05/14 21:30	49.6	52.0	351.0	20.5	30.27	68.7	0.0	12.98	-133.4	0	33.9	48.8	51.7	0	205	0	0	0	77.3	52.9	78.0
2021 05/14 21:45	49.5	51.4	343.8	17.9	30.27	68.6	0.0	13.02	-133.4	0	35.6	48.8	50.8	0	205	0	0	0	77.6	52.8	78.0
2021 05/14 22:00	49.5	50.4	350.7	17.1	30.27	68.4	0.0	13.01	-133.5	0	33.9	47.9	50.3	0	205	0	0	0	78.2	52.4	78.0
2021 05/14 22:15	48.6	54.4	349.8	23.4	30.26	68.3	0.0	13.01	-133.6	0	34.4	48.8	51.0	0	205	0	0	0	78.1	52.2	78.0
2021 05/14 22:30	48.0	58.1	338.4	23.8	30.27	68.2	0.0	13.01	-133.8	0	34.4	47.9	51.9	0	205	0	0	0	77.5	52.0	78.0
2021 05/14 22:45	48.3	63.8	349.1	20.7	30.26	68.0	0.0	13.00	-133.9	0	34.2	47.9	51.6	0	205	0	0	0	76.8	51.7	78.0
2021 05/14 23:00	47.9	59.6	359.2	11.1	30.27	67.8	0.0	12.99	-134.0	0	34.3	46.1	50.6	0	205	0	0	0	76.4	51.5	77.9
2021 05/14 23:15	48.9	52.9	0.2	10.4	30.27	67.7	0.0	13.01	-134.1	0	35.5	47.0	47.0	0	205	0	0	0	75.9	51.4	77.9
2021 05/14 23:30	49.4	51.0	12.0	9.2	30.26	67.5	0.0	13.00	-134.3	0	34.5	46.1	45.0	0	205	0	0	0	75.4	51.2	77.9
2021 05/14 23:45	49.6	50.8	7.7	6.6	30.26	67.4	0.0	13.03	-134.4	0	34.4	46.1	44.1	0	205	0	0	0	75.0	51.1	77.9
2021 05/15 00:00	51.5	45.0	32.4	8.6	30.25	67.2	0.0	13.00	-134.5	0	35.4	47.0	42.9	0	205	0	0	0	74.4	50.9	77.9
2021 05/15 00:15	51.1	45.6	14.1	9.3	30.25	66.9	0.0	13.01	-134.6	0	34.8	47.0	41.6	0	205	0	0	0	73.8	50.6	77.9
2021 05/15 00:30	52.1	46.4	21.3	9.9	30.25	66.7	0.0	13.01	-134.7	0	34.7	47.0	41.1	0	205	0	0	0	73.2	50.4	77.9
2021 05/15 00:45	50.5	46.9	24.8	7.7	30.24	66.6	0.0	13.00	-134.9	0	33.6	47.0	40.3	0	205	0	0	0	73.2	50.4	77.9
2021 05/15 01:00	49.6	48.3	25.1	6.8	30.24	66.4	0.0	13.00	-135.0	0	35.6	46.1	39.5	0	205	0	0	0	72.6	50.0	77.9
2021 05/15 01:15	50.1	48.2	20.1	4.7	30.24	66.2	0.0	13.03	-135.0	0	35.3	46.1	38.4	0	205	0	0	0	73.1	49.7	77.9
2021 05/15 01:30	50.0	45.5	2.7	8.3	30.24	66.1	0.0	13.02	-135.1	0	35.6	47.0	38.1	0	205	0	0	0	73.9	49.5	77.9
2021 05/15 01:45	49.9	41.7	1.2	9.4	30.23	65.9	0.0	13.01	-135.2	0	35.5	47.9	37.7	0	205	0	0	0	74.0	49.3	77.9
2021 05/15 02:00	50.0	41.2	1.3	6.7	30.23	65.7	0.0	13.00	-135.2	0	35.6	47.9	37.0	0	205	0	0	0	74.0	49.0	77.9
2021 05/15 02:15	49.8	41.6	14.6	5.1	30.22	65.5	0.0	13.00	-135.4	0	35.1	47.9	36.9	0	205	0	0	0	74.6	48.8	77.9
2021 05/15 02:30	50.5	48.1	54.7	3.6	30.22	65.3	0.0	13.00	-135.5	0	35.1	47.0	36.3	0	205	0	0	0	75.9	48.6	77.9
2021 05/15 02:45	51.0	46.7	33.9	3.8	30.22	65.1	0.0	13.02	-135.5	0	35.1	47.0	36.1	0	205	0	0	0	75.9	48.6	77.9
2021 05/15 03:00	49.3	34.1	335.5	7.2	30.21	65.0	0.0	13.03	-135.6	0	34.7	46.1	35.7	0	205	0	0	0	78.2	48.4	77.9
2021 05/15 03:15	48.9	36.8	347.1	9.5	30.21	64.8	0.0	13.01	-135.7	0	34.3	47.0	35.8	0	205	0	0	0	79.4	48.0	77.9
2021 05/15 03:30	48.2	42.1	338.2	8.9	30.21	64.6	0.0	12.99	-135.7	0	34.9	46.1	35.1	0	205	0	0	0	79.5	47.8	77.9
2021 05/15 03:45	49.1	41.4	29.6	7.2	30.21	64.5	0.0	13.01	-135.9	0	35.8	45.2	35.3	0	205	0	0	0	79.5	47.7	77.9
2021 05/15 04:00	49.4	36.2	9.1	6.0	30.21	64.3	0.0	12.99	-135.9	0	35.3	46.1	35.0	0	205	0	0	0	79.4	47.5	77.8
2021 05/15 04:15	50.2	37.3	39.0	4.8	30.21	64.1	0.0	13.02	-136.0	0	34.7	47.0	35.1	0	205	0	0	0	78.8	47.4	77.8
2021 05/15 04:30	50.6	39.8	69.0	5.8	30.20	63.9	0.0	13.00	-136.0	0	34.2	46.1	34.5	0	205	0	0	0	77.6	47.1	77.8
2021 05/15 04:45	50.1	40.1	86.7	6.0	30.20	63.7	0.0	13.01	-136.1	0	35.3	45.2	34.3	0	205	0	0	0	76.6	46.9	77.8
2021 05/15 05:00	49.9	40.0	81.8	5.6	30.20	63.6	0.0	13.00	-136.1	0	34.7	46.1	34.0	0	205	0	0	0	75.5	46.8	77.9
2021 05/15 05:15	50.0	41.5	103.3	4.8	30.20	63.4	0.7	13.02	-136.1	0	35.5	46.1	33.6	0	205	0	0	0	74.5	46.6	77.9
2021 05/15 05:30	50.0	40.1	98.1	6.9	30.20	63.3	8.5	13.00	-136.2	0	34.9	45.2	33.5	0	205	0	0	0	73.6	46.4	77.9
2021 05/15 05:45	49.9	38.3	84.5	8.9	30.19	63.1	50.9	13.01	-136.2	0	34.5	45.2	33.7	0	205	0	0	0	73.0	46.4	77.9
2021 05/15 06:00	49.9	40.0	78.6	8.7	30.19	62.9	139.8	12.99	-136.2	0	35.7	45.2	33.3	0	205	0	0	0	72.1	46.1	77.9
2021 05/15 06:15	49.5	40.2	94.2	9.7	30.19	62.7	224.9	12.99	-136.4	0	34.6	48.8	33.3	0	205	0	0	0	71.2	46.0	77.9
2021 05/15 06:30	49.4	39.1	94.3	10.2	30.19	62.6	289.7	13.03	-136.4	0	35.0	50.6	33.5	0	205	0	0	0	70.3	45.8	77.9
2021 05/15 06:45	49.3	38.1	87.1	10.4	30.19	62.4	334.8	13.03	-136.4	0	34.6	50.6	35.3	0	205	0	0	0	69.6	45.7	77.9
2021 05/15 07:00	49.1	39.2	83.8	12.5	30.19	62.3	367.4	12.99	-136.4	0	34.1	50.6	36.3	0	205	0	0	0	68.9	45.6	78.0
2021 05/15 07:15	48.9	40.4	76.9	11.7	30.19	62.2	392.1	13.00	-136.5	0	34.7	51.5	37.1	0	205	0	0	0	68.5	45.6	78.0
2021 05/15 07:30	48.7	41.1	73.5	12.8	30.19	62.2	410.1	13.01	-136.4	0	34.7	53.3	38.7	0	205	0	0	0	67.6	45.5	78.0
2021 05/15 07:45	48.5	44.3	75.9	14.9	30.19	62.1	421.6	13.01	-136.5	0	34.7	53.3	41.1	0	205	0	0	0	67.6	45.5	78.0
2021 05/15 08:00	48.8	46.0	90.9	15.3	30.19	62.1	438.6	13.00	-136.5	0	33.6	54.2	47.2	0	205	0	0	0	67.7	45.7	78.0
2021 05/15 08:15	49.0	47.1	78.6	14.4	30.19	62.0	459.6	13.03	-136.5	0	35.2	54.2	52.2	0	205	0	0	0	67.5	45.9	78.0
2021 05/15 08:30	50.1	47.8	83.9	13.2	30.20	62.0	486.1	13.00	-136.5	0	34.6	56.0	53.2	0	205	0	0	0	67.6	46.1	78.0
2021 05/15 08:45	49.5	46.5	81.5	14.2	30.20	62.0	504.7	13.02	-136.5	0	34.9	55.1	54.1	0	205	0	0	0	67.6	46.7	78.0
2021 05/15 09:00	49.8	46.7	79.5	13.7	30.20	62.1	520.4	12.99	-136.4	0	34.5	56.0	55.0	0	205	0	0	0	67.7	47.2	78.0
2021 05/15 09:15	50.1	45.0	84.5	14.1	30.21	62.2	539.7	13.01	-136.4	0	33.9	56.0	55.9	0	205	0	0	0	67.7	47.9	78.0
2021 05/15 09:30	50.4	45.6	90.5	12.4	30.21	62.2	552.9	12.99	-136.4	0	34.4	57.8	56.4	0	205	0	0	0	67.7	48.6	78.0
2021 05/15 09:45	50.2	46.0	63.6	15.3	30.21	62.3	562.4	13.02	-136.4	0	34.6	56.0	56.9	0	205	0	0	0	67.8	49.0	78.0
2021 05/15 10:00	50.2	46.1	62.1	14.4	30.21	62.4	566.8	13.02	-136.2	0	34.7	56.9	56.9	0	205	0	0	0	67.6	50.0	78.0
2021 05/15 10:15	51.7	46.2	48.2	14.9	30.22	62.6	565.5	13.01	-136.2	0	33.6	56.9	57.9	0	205	0	0	0	67.7	50.9	78.0
2021 05/15 10:30	51.3	46.0	56.2	14.0	30.22	62.6	560.7	12.99	-136.1	0	35.1	56.0	58.8	0	205	0	0	0	68.4	52.1	78.0
2021 05/15 10:45	51.7	44.8	44.6	16.2	30.22	62.9	557.0	12.99	-136.1	0	35.3	56.0	58.7	0	205	0	0	0	68.6	53.1	78.0
2021 05/15 11:00	52.9	44.5	26.0	15.9	30.22	63.1	551.6	13.01	-136.1	0	34.9	56.9	59.4	0	205	0	0	0	69.4	54.1	78.0
2021 05/15 11:15	52.7	43.0	45.3	19.6	30.23	63.2	547.8	13.01	-136.0	0	34.8	57.8	60.5	0	205	0	0	0	70.3	55.0	78.0
2021 05/15 11:30	53.0	37.3	60.1	13.1	30.23	63.4	545.5	12.99	-136.0	0	34.7	58.7	60.2	0	205	0	0	0	71.1	55.8	78.0
2021 05/15 11:45	53.4	38.3	82.7	16.4	30.23	63.6	544.1	12.99	-135.9	0	34.0	60.5	61.4	0	205	0	0	0	71.7	56.1	78.0
2021 05/15 12:00	53.7	37.3	84.8	17.3	30.24	63.7	541.4	13.01	-135.9	0	34.2	60.5	62.2	0	205	0	0	0	72.5	57.0	78.0
2021 05/15 12:15	53.8	38.4	53.5	11.8	30.24	63.9	538.0	13.02	-135.7	0	34.0	61.4	64.0	0	205	0	0	0	73.5	58.2	78.0
2021 05/15 12:30	54.8	38.3	71.8	11.1	30.23	64.1	534.9	13.01	-135.7	0	33.3	60.5	63.9	0	205	0	0	0	74.3	58.8	78.0
2021 05/15 12:45	54.8	35.0	64.2	16.9	30.23	64.3	531.9	12.99	-135.6	0	34.1	62.3	64.9	0	205	0	0	0	74.9	59.6	78.0
2021 05/15 13:00	54.9	34.1	86.6	12.1	30.23	64.5	525.8	13.01	-135.6	0	33.3	63.2	63.7	0	205	0	0	0	75.4	60.0	78.0
2021 05/15 13:15	56.6	33.1	111.6	12.1	30.23	64.5	519.3	13.01	-135.5	0	34.1	63.2	65.8	0	205	0	0	0	75.8	60.6	78.0
2021 05/15 13:30	55.6	33.3	16.0	6.9	30.23	64.8	513.6	12.99	-135.5	0	34.4	63.2	64.7	0	205	0	0	0	76.3	60.9	78.0
2021 05/15 13:45	55.9	32.8	25.6	14.7	30.23	65.0	508.4	12.99	-135.4	0	32.5	63.2	65.4	0	205	0	0	0	76.5	60.9	78.0
2021 05/15 14:00	56.2	33.0	352.6	15.4	30.22	65.0	509.8	12.99	-135.4	0	33.1	63.2	65.0	0	205	0	0	0	76.8	61.1	78.0
2021 05/15 14:15	56.3	32.5	18.2	21.8	30.23	65.2	509.8	13.01	-135.4	0	33.3	62.3	65.7	0	205	0	0	0	76.8	61.0	78.0
2021 05/15 14:30	56.7	31.1	17.2	17.3	30.23	65.3	509.1	13.02	-135.2	0	31.5	63.2	66.5	0	205	0	0	0	77.1	60.7	78.0
2021 05/15 14:45	57.1	32.1	57.5	10.0	30.23	65.5	507.7	12.99	-135.2	0	31.9	64.1	67.9	0	205	0	0	0	77.1	60.6	78.0
2021 05/15 15:00	57.4	31.0	31.4	8.7	30.23	65.7	507.7	12.99	-135.1	0	33.4	64.1	66.6	0	205	0	0	0	77.4	60.4	78.0
2021 05/15 15:15	58.0	30.3	17.6	19.1	30.23	65.9	506.4	12.99	-135.0	0	32.2	64.1	66.0	0	205	0	0	0	77.7	60.2	78.0
2021 05/15 15:30	58.2	29.6	349.5	13.3	30.23	66.1	506.4	13.00	-135.0	0	31.1	64.1	69.4	0	205	0	0	0	77.9	60.1	78.0
2021 05/15 15:45	58.4	29.4	34.5	16.8	30.23	66.3	507.4	13.01	-134.9	0	31.8	64.1	69.7	0	205	0	0	0	77.9	60.0	78.0
2021 05/15 16:00	58.3	29.2	10.8	17.1	30.22	66.5	509.1	12.99	-134.7	0	31.4	64.1	67.4	0	205	0	0	0	78.1	59.9	77.8
2021 05/15 16:15	58.6	29.2	145.5	16.9	30.22	66.7	512.1	13.01	-134.6	0	30.7	64.1	68.2	0	205	0	0	0	78.4	59.7	77.8
2021 05/15 16:30	58.2	27.6	77.0	18.2	30.23	66.9	521.3	13.02	-134.5	0	31.6	63.2	70.1	0	205	0	0	0	78.4	59.6	77.8
2021 05/15 16:45	58.3	29.5	61.4	12.8	30.23	67.2	530.4	12.99	-134.4	0	30.5	63.2	69.7	0	205	0	0	0	79.0	59.5	77.8
2021 05/15 17:00	58.2	27.5	65.5	25.9	30.23	67.5	533.5	13.01	-134.1	0	31.2	63.2	70.8	0	205	0	0	0	79.3	59.4	77.4
2021 05/15 17:15	58.4	26.7	47.9	8.8	30.23	67.7	507.0	13.02	-134.0	0	30.9	64.1	71.1	0	205	0	0	0	79.5	59.4	77.4
2021 05/15 17:30	57.2	53.7	327.3	9.3	30.23	67.9	544.0	13.00	-133.9	0	28.5	63.2	68.4	0	205	0	0	0	79.8	59.4	77.4
2021 05/15 17:45	57.7	31.9	27.3	7.3	30.24	68.2	553.5	13.02	-133.6	0	31.6	63.2	69.9	0	205	0	0	0	79.9	59.4	77.4
2021 05/15 18:00	58.3	27.4	23.3	5.4	30.24	68.4	566.1	12.99	-133.5	0	29.3	63.2	71.2	0	205	0	0	0	79.9	59.3	77.7
2021 05/15 18:15	56.5	52.7	336.6	13.3	30.24	68.8	572.5	13.00	-133.3	0	30.4	62.3	70.1	0	205	0	0	0	80.0	59.2	77.7
2021 05/15 18:30	56.3	54.3	319.2	15.1	30.25	69.1	543.3	12.99	-133.0	0	31.3	61.4	66.9	0	205	0	0	0	80.0	59.3	77.7
2021 05/15 18:45	56.0	55.0	28.8	18.1	30.24	69.3	528.7	13.00	-132.8	0	30.8	60.5	66.0	0	205	0	0	0	79.8	59.3	77.7
2021 05/15 19:00	55.7	54.7	342.3	17.2	30.25	69.7	525.0	12.99	-132.4	0	30.4	59.6	63.1	0	205	0	0	0	79.3	59.2	77.7
2021 05/15 19:15	55.9	54.1	353.5	16.2	30.26	69.9	556.6	13.01	-132.2	0	30.7	58.7	61.8	0	205	0	0	0	78.9	59.2	77.7
2021 05/15 19:30	55.4	53.9	353.0	16.0	30.26	70.3	534.5	13.01	-131.9	0	30.8	56.9	60.3	0	205	0	0	0	78.3	59.0	77.7
2021 05/15 19:45	55.6	54.3	350.6	18.1	30.27	70.6	546.4	12.99	-131.6	0	30.9	56.9	60.0	0	205	0	0	0	78.0	58.8	77.7
2021 05/15 20:00	54.0	53.8	336.5	16.1	30.27	70.8	713.0	12.99	-131.3	0	30.0	55.1	57.7	0	205	0	0	0	77.3	58.6	78.0
2021 05/15 20:15	53.3	54.1	334.8	19.1	30.27	71.0	551.1	12.99	-131.1	0	29.5	53.3	57.3	0	205	0	0	0	76.6	58.4	78.0
2021 05/15 20:30	52.3	54.9	327.0	20.6	30.28	71.2	110.6	12.99	-130.8	0	30.2	52.4	56.5	0	205	0	0	0	75.8	58.0	78.0
2021 05/15 20:45	51.8	56.3	335.5	16.5	30.28	71.4	17.0	13.01	-130.7	0	31.2	51.5	55.6	0	205	0	0	0	74.9	57.8	78.0
2021 05/15 21:00	52.1	55.5	341.1	19.2	30.29	71.5	2.0	13.01	-130.6	0	32.1	51.5	54.0	0	205	0	0	0	74.1	57.5	78.0
2021 05/15 21:15	52.3	54.1	357.6	22.6	30.28	71.6	0.0	12.99	-130.6	0	29.7	51.5	51.4	0	205	0	0	0	73.2	57.2	78.0
2021 05/15 21:30	51.8	54.5	347.5	18.4	30.29	71.6	0.0	13.00	-130.6	0	29.4	50.6	50.5	0	205	0	0	0	72.3	56.7	78.0
2021 05/15 21:45	52.3	52.8	357.8	18.8	30.29	71.6	0.0	13.00	-130.6	0	31.2	50.6	49.9	0	205	0	0	0	71.9	56.6	78.0
2021 05/15 22:00	53.2	48.7	14.1	16.5	30.29	71.6	0.0	13.02	-130.7	0	31.6	50.6	48.6	0	205	0	0	0	70.9	56.1	78.0
2021 05/15 22:15	53.8	41.4	19.4	14.7	30.29	71.6	0.0	13.02	-130.8	0	31.8	49.7	47.7	0	205	0	0	0	70.1	55.8	78.0
2021 05/15 22:30	54.5	38.4	42.9	14.7	30.29	71.4	0.0	13.01	-131.1	0	31.4	50.6	47.1	0	205	0	0	0	69.1	55.5	78.0
2021 05/15 22:45	53.9	40.0	51.3	14.2	30.29	71.3	0.0	12.99	-131.2	0	32.1	49.7	46.5	0	205	0	0	0	68.3	55.1	78.0
2021 05/15 23:00	54.0	39.7	58.7	15.5	30.29	71.2	0.0	13.01	-131.4	0	32.1	49.7	45.3	0	205	0	0	0	67.6	54.8	78.3
2021 05/15 23:15	54.9	40.7	54.7	14.2	30.28	71.1	0.0	13.01	-131.6	0	32.1	50.6	44.2	0	205	0	0	0	66.8	54.5	78.3
2021 05/15 23:30	54.0	40.2	58.4	14.2	30.28	71.0	0.0	13.02	-131.8	0	31.6	48.8	43.6	0	205	0	0	0	66.0	54.1	78.3
2021 05/15 23:45	53.2	41.6	75.4	14.4	30.28	70.8	0.0	13.03	-131.9	0	31.9	50.6	43.3	0	205	0	0	0	65.6	53.9	78.3
2021 05/16 00:00	54.4	42.5	68.0	13.5	30.28	70.6	0.0	12.99	-132.2	0	31.6	50.6	43.6	0	205	0	0	0	64.9	53.5	77.9
2021 05/16 00:15	53.4	42.7	61.2	14.2	30.28	70.5	0.0	12.99	-132.3	0	32.0	48.8	42.4	0	205	0	0	0	64.4	53.2	77.9
2021 05/16 00:30	53.3	42.9	60.4	14.5	30.28	70.4	0.0	12.99	-132.4	0	32.2	48.8	42.0	0	205	0	0	0	63.5	52.9	77.9
2021 05/16 00:45	53.4	43.9	58.4	13.3	30.27	70.1	0.0	13.00	-132.7	0	31.4	48.8	41.1	0	205	0	0	0	62.9	52.5	77.9
2021 05/16 01:00	53.0	44.1	52.7	10.9	30.27	69.9	0.0	13.01	-132.8	0	32.0	48.8	40.8	0	205	0	0	0	61.9	52.3	78.0
2021 05/16 01:15	52.9	44.8	52.3	10.8	30.27	69.8	0.0	13.03	-133.0	0	32.1	48.8	40.2	0	205	0	0	0	61.3	52.0	78.0
2021 05/16 01:30	53.2	44.8	59.0	11.3	30.27	69.6	0.0	13.01	-133.2	0	31.9	48.8	39.9	0	205	0	0	0	60.4	51.6	78.0
2021 05/16 01:45	52.7	45.3	53.6	10.7	30.27	69.5	0.0	13.02	-133.3	0	32.0	48.8	39.9	0	205	0	0	0	60.1	51.5	78.0
2021 05/16 02:00	52.7	45.6	46.7	10.6	30.27	69.3	0.0	12.99	-133.4	0	32.0	48.8	39.3	0	205	0	0	0	59.6	51.2	78.1
2021 05/16 02:15	53.0	45.8	49.4	11.2	30.26	69.1	0.0	13.01	-133.5	0	32.0	48.8	39.1	0	205	0	0	0	59.1	51.0	78.1
2021 05/16 02:30	52.9	45.5	35.7	10.4	30.26	69.0	0.0	13.01	-133.6	0	31.7	49.7	38.2	0	205	0	0	0	58.7	50.7	78.1
2021 05/16 02:45	52.9	45.8	43.4	8.0	30.26	68.9	0.0	13.00	-133.8	0	31.8	49.7	38.2	0	205	0	0	0	58.3	50.4	78.1
2021 05/16 03:00	52.9	46.3	35.0	7.3	30.26	68.7	0.0	13.00	-133.9	0	31.9	49.7	38.1	0	205	0	0	0	57.8	50.2	78.4
2021 05/16 03:15	53.0	46.5	38.0	8.9	30.25	68.4	0.0	13.01	-134.0	0	31.7	49.7	37.8	0	205	0	0	0	57.4	50.0	78.4
2021 05/16 03:30	53.0	46.9	40.5	8.6	30.24	68.3	0.0	13.02	-134.1	0	31.8	49.7	37.3	0	205	0	0	0	57.0	49.7	78.4
2021 05/16 03:45	53.0	46.8	34.9	9.5	30.24	68.2	0.0	13.01	-134.3	0	31.6	49.7	37.2	0	205	0	0	0	56.8	49.6	78.4
2021 05/16 04:00	52.9	46.1	33.3	8.7	30.24	68.0	0.0	13.02	-134.4	0	31.6	49.7	37.1	0	205	0	0	0	56.5	49.4	78.1
2021 05/16 04:15	52.9	46.3	27.5	8.1	30.24	67.8	0.0	12.99	-134.4	0	31.1	49.7	36.7	0	205	0	0	0	56.1	49.2	78.1
2021 05/16 04:30	54.1	43.9	13.7	11.2	30.23	67.7	0.0	12.99	-134.5	0	32.1	49.7	36.7	0	205	0	0	0	55.7	48.9	78.1
2021 05/16 04:45	53.4	42.1	0.5	10.6	30.23	67.6	0.0	12.99	-134.6	0	31.9	49.7	36.8	0	205	0	0	0	55.2	48.7	78.1
2021 05/16 05:00	53.6	41.3	5.0	10.8	30.23	67.4	0.0	13.02	-134.7	0	31.2	49.7	36.1	0	205	0	0	0	54.9	48.5	78.3
2021 05/16 05:15	53.8	40.9	0.7	9.5	30.22	67.2	1.0	13.01	-134.7	0	31.1	49.7	36.3	0	205	0	0	0	54.6	48.3	78.3
2021 05/16 05:30	53.3	42.3	24.1	11.8	30.22	67.0	10.5	13.00	-134.9	0	32.4	49.7	36.2	0	205	0	0	0	54.1	48.0	78.3
2021 05/16 05:45	52.9	44.4	0.3	11.8	30.22	66.8	59.7	13.00	-134.9	0	31.7	49.7	35.9	0	205	0	0	0	53.9	48.0	78.3
2021 05/16 06:00	54.0	46.3	1.5	12.1	30.22	66.6	149.9	13.00	-135.0	0	32.3	49.7	36.0	0	205	0	0	0	53.7	47.8	78.3
2021 05/16 06:15	53.2	42.3	2.3	11.5	30.22	66.5	237.1	13.00	-135.1	0	31.9	52.4	35.5	0	205	0	0	0	53.3	47.6	78.3
2021 05/16 06:30	53.3	38.3	16.8	9.2	30.21	66.3	298.8	13.02	-135.2	0	31.9	54.2	36.8	0	205	0	0	0	53.1	47.5	78.3
2021 05/16 06:45	54.6	41.5	7.8	8.5	30.22	66.1	342.2	13.03	-135.2	0	31.9	55.1	37.0	0	205	0	0	0	53.0	47.4	78.3
2021 05/16 07:00	53.5	39.1	13.5	9.5	30.21	66.0	373.4	13.02	-135.4	0	31.8	55.1	38.2	0	205	0	0	0	52.5	47.1	78.4
2021 05/16 07:15	53.6	38.5	6.9	8.0	30.22	65.9	396.5	13.03	-135.4	0	31.4	56.0	40.3	0	205	0	0	0	52.8	47.1	78.4
2021 05/16 07:30	53.6	37.9	3.9	8.9	30.22	65.7	413.4	13.00	-135.4	0	31.2	58.7	42.6	0	205	0	0	0	53.7	47.1	78.4
2021 05/16 07:45	53.8	38.7	13.0	6.5	30.22	65.7	425.0	13.02	-135.4	0	30.6	57.8	44.1	0	205	0	0	0	53.9	47.1	78.4
2021 05/16 08:00	53.8	40.2	22.3	9.4	30.22	65.7	441.9	13.02	-135.5	0	31.5	58.7	46.6	0	205	0	0	0	53.5	47.2	78.4
2021 05/16 08:15	54.3	37.4	12.9	5.1	30.22	65.7	461.9	13.02	-135.4	0	31.0	58.7	48.8	0	205	0	0	0	54.8	47.4	78.4
2021 05/16 08:30	54.6	35.4	49.9	5.5	30.22	65.7	488.1	13.02	-135.4	0	30.7	62.3	54.9	0	205	0	0	0	55.4	47.7	78.4
2021 05/16 08:45	54.5	36.0	18.8	6.1	30.22	65.7	506.4	12.99	-135.4	0	31.3	60.5	56.9	0	205	0	0	0	56.0	48.0	78.4
2021 05/16 09:00	56.0	36.8	30.9	5.9	30.22	65.7	521.6	13.00	-135.4	0	31.1	59.6	58.4	0	205	0	0	0	56.8	48.5	78.6
2021 05/16 09:15	54.8	37.0	357.3	6.5	30.22	65.7	541.0	12.99	-135.2	0	30.9	59.6	58.8	0	205	0	0	0	57.7	49.2	78.6
2021 05/16 09:30	56.0	36.4	14.1	2.1	30.22	65.8	554.5	13.02	-135.2	0	29.4	61.4	59.6	0	205	0	0	0	58.5	50.0	78.6
2021 05/16 09:45	56.2	34.6	345.3	2.6	30.23	65.9	566.7	13.00	-135.2	0	30.4	60.5	60.1	0	205	0	0	0	59.0	50.4	78.6
2021 05/16 10:00	55.6	34.7	313.5	8.9	30.22	66.0	569.4	13.01	-135.1	0	31.3	61.4	60.7	0	205	0	0	0	60.0	51.1	78.8
2021 05/16 10:15	56.5	34.3	332.2	6.5	30.22	66.0	566.7	13.02	-135.1	0	31.0	60.5	61.2	0	205	0	0	0	61.1	52.2	78.8
2021 05/16 10:30	57.5	34.0	99.1	4.4	30.22	66.0	562.0	12.99	-135.1	0	30.5	60.5	61.8	0	205	0	0	0	62.3	53.1	78.8
2021 05/16 10:45	57.8	34.2	335.6	3.1	30.22	66.1	558.2	12.99	-135.1	0	30.6	61.4	62.3	0	205	0	0	0	63.7	54.2	78.8
2021 05/16 11:00	60.4	34.9	43.1	1.8	30.22	66.1	552.8	13.02	-135.1	0	30.8	61.4	62.3	0	205	0	0	0	65.3	55.2	78.9
2021 05/16 11:15	58.3	34.0	29.7	2.8	30.22	66.3	553.8	13.02	-135.0	0	30.6	61.4	62.8	0	205	0	0	0	66.5	56.4	78.9
2021 05/16 11:30	57.3	35.1	314.8	5.9	30.22	66.4	546.0	12.99	-135.0	0	30.8	62.3	62.9	0	205	0	0	0	68.2	57.4	78.9
2021 05/16 11:45	62.8	31.1	199.5	2.9	30.23	66.5	544.3	12.99	-134.9	0	30.2	64.1	64.2	0	205	0	0	0	68.9	57.9	78.9
2021 05/16 12:00	59.3	33.0	315.4	6.0	30.23	66.7	541.0	12.99	-134.7	0	29.5	65.9	65.6	0	205	0	0	0	70.3	58.6	78.8
2021 05/16 12:15	59.5	33.4	99.1	2.7	30.23	66.9	537.9	12.99	-134.6	0	29.5	65.0	66.6	0	205	0	0	0	71.7	59.6	78.8
2021 05/16 12:30	59.6	31.9	11.4	4.1	30.22	67.2	534.5	13.02	-134.5	0	28.4	65.0	68.4	0	205	0	0	0	72.9	60.4	78.8
2021 05/16 12:45	59.3	33.2	352.2	6.7	30.23	67.4	530.8	13.00	-134.4	0	28.5	65.0	65.8	0	205	0	0	0	74.1	61.0	78.8
2021 05/16 13:00	60.2	31.5	277.5	13.5	30.22	67.6	524.7	13.02	-134.3	0	30.7	66.8	67.5	0	205	0	0	0	74.7	61.5	79.0

Where:
  YYYY   = Year
  MM/DD  = Month / Date
  hh:mm  = Hour  : Minute
  Temp   = Temperature outside       (F)              @ 5720', on tower
  Humid  = Humidity    outside       (%)              @ 5720'
  W_dir  = Wind direction / Azimuth  (degrees)        @ 5720'
  W_spd  = Wind speed                (miles per hour) @ 5720'
  Barom  = Sea-level air pressure    (inches of mercury)
  T_int  = Temperature (internal)    (F)              - inside barometer case
  Light  = Outside light level       (no units)       - 0 = dark, 1000 = bright
  Power  = Power supply rail         (Volts)
  Temp2  = Temperature (back-up)     (F)
  P2     = datalogger counter channel "P2" (to be static burst counter)
  Snow   = Snow depth,  mid-mountain (inches)         @ 5010'
  T_mid  = Temperature, mid-mountain (F)              @ 5010'
  T_base = Temperature @ south lodge (F)              @ 4700'
  Precip = Precipitation total       (inches)         @ 4800' (near US20 mp81)

Notes:
1999 07/17
   Barometric data in this listing should have an additional
   temperature correction applied to it, based on the sensor's
   internal temperature:

   P_corrected = Barom + (-0.0223 * T_int) + 0.8887  (inches Hg)

2004 07/03
   The air pressure correction equation has not been checked
   in a long time.  The air pressure reading is best used only
   to observe general trends.

2006 11/18
   Added precipitation gauge.  Depth is precipitation equivalent in water,
   for the water year (beginning October 1st) at the Hogg Pass
   SnoTel station.

2011 03/11
  Fixed data column title bug from adding "T_base" after "T_mid".
  If you notice a bug like this it will get fixed a whole lot sooner
  if you tell me about it.